<?xml version="1.0" encoding="UTF-8" standalone="no" ?>
<gpx xmlns="http://www.topografix.com/GPX/1/1" xmlns:xsi="http://www.w3.org/2001/XMLSchema-instance" xsi:schemaLocation="http://www.topografix.com/GPX/1/1 http://www.topografix.com/GPX/1/1/gpx.xsd" version="1.1" creator="VisuGPX - https://www.visugpx.com">
  <metadata>
    <name>ASLPM marche Benon le 12 octobre 2015</name>
    <desc><![CDATA[ASLPM marche Benon du 12 octobre 2015
]]></desc>
  </metadata>
  <trk>
    <name><![CDATA[12/10/2015 09:04:30]]></name>
    <trkseg>
      <trkpt lat="46.20526" lon="-0.81446">
        <ele>21</ele>
        <time>2015-10-12T07:04:30Z</time>
      </trkpt>
      <trkpt lat="46.20528" lon="-0.81445">
        <ele>21</ele>
        <time>2015-10-12T07:04:31Z</time>
      </trkpt>
      <trkpt lat="46.20529" lon="-0.81451">
        <ele>21</ele>
        <time>2015-10-12T07:04:32Z</time>
      </trkpt>
      <trkpt lat="46.20529" lon="-0.81447">
        <ele>21</ele>
        <time>2015-10-12T07:04:37Z</time>
      </trkpt>
      <trkpt lat="46.20523" lon="-0.81464">
        <ele>20.9</ele>
        <time>2015-10-12T07:04:50Z</time>
      </trkpt>
      <trkpt lat="46.20528" lon="-0.81455">
        <ele>21</ele>
        <time>2015-10-12T07:04:55Z</time>
      </trkpt>
      <trkpt lat="46.2053" lon="-0.81454">
        <ele>21</ele>
        <time>2015-10-12T07:05:26Z</time>
      </trkpt>
      <trkpt lat="46.20529" lon="-0.81457">
        <ele>21</ele>
        <time>2015-10-12T07:05:29Z</time>
      </trkpt>
      <trkpt lat="46.20527" lon="-0.81459">
        <ele>21</ele>
        <time>2015-10-12T07:05:32Z</time>
      </trkpt>
      <trkpt lat="46.20528" lon="-0.81459">
        <ele>21</ele>
        <time>2015-10-12T07:06:48Z</time>
      </trkpt>
      <trkpt lat="46.20522" lon="-0.8145">
        <ele>21</ele>
        <time>2015-10-12T07:07:20Z</time>
      </trkpt>
      <trkpt lat="46.20527" lon="-0.81464">
        <ele>21</ele>
        <time>2015-10-12T07:07:38Z</time>
      </trkpt>
      <trkpt lat="46.20528" lon="-0.81461">
        <ele>21</ele>
        <time>2015-10-12T07:07:43Z</time>
      </trkpt>
      <trkpt lat="46.20522" lon="-0.81447">
        <ele>21</ele>
        <time>2015-10-12T07:07:54Z</time>
      </trkpt>
      <trkpt lat="46.20527" lon="-0.81457">
        <ele>21</ele>
        <time>2015-10-12T07:08:27Z</time>
      </trkpt>
      <trkpt lat="46.20519" lon="-0.81441">
        <ele>21</ele>
        <time>2015-10-12T07:08:55Z</time>
      </trkpt>
      <trkpt lat="46.20528" lon="-0.8146">
        <ele>21</ele>
        <time>2015-10-12T07:09:18Z</time>
      </trkpt>
      <trkpt lat="46.20529" lon="-0.81453">
        <ele>21</ele>
        <time>2015-10-12T07:10:32Z</time>
      </trkpt>
      <trkpt lat="46.20528" lon="-0.81459">
        <ele>21</ele>
        <time>2015-10-12T07:10:58Z</time>
      </trkpt>
      <trkpt lat="46.20535" lon="-0.81482">
        <ele>20.7</ele>
        <time>2015-10-12T07:11:42Z</time>
      </trkpt>
      <trkpt lat="46.20542" lon="-0.81506">
        <ele>20</ele>
        <time>2015-10-12T07:11:57Z</time>
      </trkpt>
      <trkpt lat="46.20542" lon="-0.81522">
        <ele>20</ele>
        <time>2015-10-12T07:12:06Z</time>
      </trkpt>
      <trkpt lat="46.20538" lon="-0.81534">
        <ele>20</ele>
        <time>2015-10-12T07:12:14Z</time>
      </trkpt>
      <trkpt lat="46.20526" lon="-0.81556">
        <ele>19.9</ele>
        <time>2015-10-12T07:12:31Z</time>
      </trkpt>
      <trkpt lat="46.20522" lon="-0.8158">
        <ele>19.8</ele>
        <time>2015-10-12T07:12:45Z</time>
      </trkpt>
      <trkpt lat="46.20525" lon="-0.81607">
        <ele>19.1</ele>
        <time>2015-10-12T07:13:02Z</time>
      </trkpt>
      <trkpt lat="46.20533" lon="-0.81629">
        <ele>19.1</ele>
        <time>2015-10-12T07:13:26Z</time>
      </trkpt>
      <trkpt lat="46.20541" lon="-0.81654">
        <ele>19</ele>
        <time>2015-10-12T07:13:40Z</time>
      </trkpt>
      <trkpt lat="46.20546" lon="-0.8168">
        <ele>19</ele>
        <time>2015-10-12T07:13:52Z</time>
      </trkpt>
      <trkpt lat="46.20554" lon="-0.81705">
        <ele>19</ele>
        <time>2015-10-12T07:14:05Z</time>
      </trkpt>
      <trkpt lat="46.2056" lon="-0.81723">
        <ele>19</ele>
        <time>2015-10-12T07:14:15Z</time>
      </trkpt>
      <trkpt lat="46.20565" lon="-0.81736">
        <ele>19</ele>
        <time>2015-10-12T07:14:22Z</time>
      </trkpt>
      <trkpt lat="46.20573" lon="-0.81761">
        <ele>18.8</ele>
        <time>2015-10-12T07:14:35Z</time>
      </trkpt>
      <trkpt lat="46.20578" lon="-0.81783">
        <ele>18.4</ele>
        <time>2015-10-12T07:14:47Z</time>
      </trkpt>
      <trkpt lat="46.20582" lon="-0.81798">
        <ele>18.7</ele>
        <time>2015-10-12T07:14:55Z</time>
      </trkpt>
      <trkpt lat="46.20588" lon="-0.81815">
        <ele>19</ele>
        <time>2015-10-12T07:15:06Z</time>
      </trkpt>
      <trkpt lat="46.20598" lon="-0.81839">
        <ele>18.9</ele>
        <time>2015-10-12T07:15:20Z</time>
      </trkpt>
      <trkpt lat="46.20604" lon="-0.81864">
        <ele>18.3</ele>
        <time>2015-10-12T07:15:32Z</time>
      </trkpt>
      <trkpt lat="46.20612" lon="-0.81888">
        <ele>18</ele>
        <time>2015-10-12T07:15:44Z</time>
      </trkpt>
      <trkpt lat="46.20625" lon="-0.81903">
        <ele>18.3</ele>
        <time>2015-10-12T07:15:56Z</time>
      </trkpt>
      <trkpt lat="46.20635" lon="-0.81898">
        <ele>18.6</ele>
        <time>2015-10-12T07:16:02Z</time>
      </trkpt>
      <trkpt lat="46.20653" lon="-0.81888">
        <ele>19</ele>
        <time>2015-10-12T07:16:16Z</time>
      </trkpt>
      <trkpt lat="46.20671" lon="-0.81881">
        <ele>19</ele>
        <time>2015-10-12T07:16:29Z</time>
      </trkpt>
      <trkpt lat="46.20691" lon="-0.81875">
        <ele>19.4</ele>
        <time>2015-10-12T07:16:42Z</time>
      </trkpt>
      <trkpt lat="46.2071" lon="-0.81871">
        <ele>19.8</ele>
        <time>2015-10-12T07:16:51Z</time>
      </trkpt>
      <trkpt lat="46.20724" lon="-0.81867">
        <ele>20</ele>
        <time>2015-10-12T07:17:03Z</time>
      </trkpt>
      <trkpt lat="46.20743" lon="-0.81863">
        <ele>20</ele>
        <time>2015-10-12T07:17:16Z</time>
      </trkpt>
      <trkpt lat="46.20761" lon="-0.81861">
        <ele>20</ele>
        <time>2015-10-12T07:17:29Z</time>
      </trkpt>
      <trkpt lat="46.2078" lon="-0.81858">
        <ele>20</ele>
        <time>2015-10-12T07:17:43Z</time>
      </trkpt>
      <trkpt lat="46.20798" lon="-0.81854">
        <ele>20</ele>
        <time>2015-10-12T07:17:56Z</time>
      </trkpt>
      <trkpt lat="46.20816" lon="-0.8185">
        <ele>20</ele>
        <time>2015-10-12T07:18:08Z</time>
      </trkpt>
      <trkpt lat="46.20835" lon="-0.81845">
        <ele>20</ele>
        <time>2015-10-12T07:18:22Z</time>
      </trkpt>
      <trkpt lat="46.20854" lon="-0.81843">
        <ele>20.5</ele>
        <time>2015-10-12T07:18:36Z</time>
      </trkpt>
      <trkpt lat="46.20872" lon="-0.81841">
        <ele>20.8</ele>
        <time>2015-10-12T07:18:50Z</time>
      </trkpt>
      <trkpt lat="46.20891" lon="-0.81837">
        <ele>21.1</ele>
        <time>2015-10-12T07:19:05Z</time>
      </trkpt>
      <trkpt lat="46.20909" lon="-0.81834">
        <ele>21.7</ele>
        <time>2015-10-12T07:19:18Z</time>
      </trkpt>
      <trkpt lat="46.20927" lon="-0.81832">
        <ele>22</ele>
        <time>2015-10-12T07:19:31Z</time>
      </trkpt>
      <trkpt lat="46.20946" lon="-0.81829">
        <ele>22.2</ele>
        <time>2015-10-12T07:19:46Z</time>
      </trkpt>
      <trkpt lat="46.20965" lon="-0.81827">
        <ele>22.8</ele>
        <time>2015-10-12T07:20:00Z</time>
      </trkpt>
      <trkpt lat="46.20983" lon="-0.81826">
        <ele>23</ele>
        <time>2015-10-12T07:20:12Z</time>
      </trkpt>
      <trkpt lat="46.21001" lon="-0.81829">
        <ele>23</ele>
        <time>2015-10-12T07:20:25Z</time>
      </trkpt>
      <trkpt lat="46.2102" lon="-0.81829">
        <ele>23.7</ele>
        <time>2015-10-12T07:20:39Z</time>
      </trkpt>
      <trkpt lat="46.21038" lon="-0.8183">
        <ele>24</ele>
        <time>2015-10-12T07:20:52Z</time>
      </trkpt>
      <trkpt lat="46.21057" lon="-0.81828">
        <ele>24</ele>
        <time>2015-10-12T07:21:05Z</time>
      </trkpt>
      <trkpt lat="46.21076" lon="-0.81824">
        <ele>24.2</ele>
        <time>2015-10-12T07:21:19Z</time>
      </trkpt>
      <trkpt lat="46.21093" lon="-0.81817">
        <ele>24.7</ele>
        <time>2015-10-12T07:21:33Z</time>
      </trkpt>
      <trkpt lat="46.2111" lon="-0.81807">
        <ele>25</ele>
        <time>2015-10-12T07:21:46Z</time>
      </trkpt>
      <trkpt lat="46.21118" lon="-0.81806">
        <ele>25</ele>
        <time>2015-10-12T07:21:51Z</time>
      </trkpt>
      <trkpt lat="46.21125" lon="-0.81804">
        <ele>25</ele>
        <time>2015-10-12T07:21:56Z</time>
      </trkpt>
      <trkpt lat="46.21143" lon="-0.81796">
        <ele>25</ele>
        <time>2015-10-12T07:22:08Z</time>
      </trkpt>
      <trkpt lat="46.21161" lon="-0.8179">
        <ele>25</ele>
        <time>2015-10-12T07:22:22Z</time>
      </trkpt>
      <trkpt lat="46.21172" lon="-0.81787">
        <ele>24.9</ele>
        <time>2015-10-12T07:22:30Z</time>
      </trkpt>
      <trkpt lat="46.21178" lon="-0.81785">
        <ele>24.7</ele>
        <time>2015-10-12T07:22:35Z</time>
      </trkpt>
      <trkpt lat="46.21196" lon="-0.81779">
        <ele>24</ele>
        <time>2015-10-12T07:22:48Z</time>
      </trkpt>
      <trkpt lat="46.21214" lon="-0.81774">
        <ele>23.3</ele>
        <time>2015-10-12T07:23:01Z</time>
      </trkpt>
      <trkpt lat="46.21232" lon="-0.81767">
        <ele>22.6</ele>
        <time>2015-10-12T07:23:14Z</time>
      </trkpt>
      <trkpt lat="46.2125" lon="-0.81761">
        <ele>22</ele>
        <time>2015-10-12T07:23:27Z</time>
      </trkpt>
      <trkpt lat="46.21269" lon="-0.81754">
        <ele>20.8</ele>
        <time>2015-10-12T07:23:41Z</time>
      </trkpt>
      <trkpt lat="46.21287" lon="-0.81749">
        <ele>20</ele>
        <time>2015-10-12T07:23:54Z</time>
      </trkpt>
      <trkpt lat="46.21305" lon="-0.81752">
        <ele>20</ele>
        <time>2015-10-12T07:24:06Z</time>
      </trkpt>
      <trkpt lat="46.21324" lon="-0.81754">
        <ele>19.3</ele>
        <time>2015-10-12T07:24:18Z</time>
      </trkpt>
      <trkpt lat="46.21335" lon="-0.81755">
        <ele>18.9</ele>
        <time>2015-10-12T07:24:25Z</time>
      </trkpt>
      <trkpt lat="46.21353" lon="-0.81758">
        <ele>18.3</ele>
        <time>2015-10-12T07:24:39Z</time>
      </trkpt>
      <trkpt lat="46.21372" lon="-0.81756">
        <ele>18</ele>
        <time>2015-10-12T07:24:52Z</time>
      </trkpt>
      <trkpt lat="46.21391" lon="-0.81756">
        <ele>18</ele>
        <time>2015-10-12T07:25:05Z</time>
      </trkpt>
      <trkpt lat="46.21409" lon="-0.81758">
        <ele>18</ele>
        <time>2015-10-12T07:25:18Z</time>
      </trkpt>
      <trkpt lat="46.21428" lon="-0.8176">
        <ele>18</ele>
        <time>2015-10-12T07:25:32Z</time>
      </trkpt>
      <trkpt lat="46.21434" lon="-0.8176">
        <ele>18</ele>
        <time>2015-10-12T07:25:36Z</time>
      </trkpt>
      <trkpt lat="46.21451" lon="-0.81748">
        <ele>18</ele>
        <time>2015-10-12T07:25:49Z</time>
      </trkpt>
      <trkpt lat="46.21454" lon="-0.81742">
        <ele>18</ele>
        <time>2015-10-12T07:25:53Z</time>
      </trkpt>
      <trkpt lat="46.21454" lon="-0.81733">
        <ele>18</ele>
        <time>2015-10-12T07:25:57Z</time>
      </trkpt>
      <trkpt lat="46.21449" lon="-0.81717">
        <ele>18</ele>
        <time>2015-10-12T07:26:06Z</time>
      </trkpt>
      <trkpt lat="46.21446" lon="-0.81717">
        <ele>18</ele>
        <time>2015-10-12T07:26:09Z</time>
      </trkpt>
      <trkpt lat="46.21444" lon="-0.81725">
        <ele>18</ele>
        <time>2015-10-12T07:26:33Z</time>
      </trkpt>
      <trkpt lat="46.21447" lon="-0.81725">
        <ele>18</ele>
        <time>2015-10-12T07:26:44Z</time>
      </trkpt>
      <trkpt lat="46.2145" lon="-0.81734">
        <ele>18</ele>
        <time>2015-10-12T07:26:49Z</time>
      </trkpt>
      <trkpt lat="46.2146" lon="-0.81747">
        <ele>18</ele>
        <time>2015-10-12T07:26:59Z</time>
      </trkpt>
      <trkpt lat="46.21469" lon="-0.81745">
        <ele>18</ele>
        <time>2015-10-12T07:27:05Z</time>
      </trkpt>
      <trkpt lat="46.21486" lon="-0.81733">
        <ele>18</ele>
        <time>2015-10-12T07:27:14Z</time>
      </trkpt>
      <trkpt lat="46.21504" lon="-0.81724">
        <ele>18</ele>
        <time>2015-10-12T07:27:23Z</time>
      </trkpt>
      <trkpt lat="46.21523" lon="-0.81717">
        <ele>18</ele>
        <time>2015-10-12T07:27:34Z</time>
      </trkpt>
      <trkpt lat="46.21541" lon="-0.8171">
        <ele>18.5</ele>
        <time>2015-10-12T07:27:48Z</time>
      </trkpt>
      <trkpt lat="46.2156" lon="-0.81708">
        <ele>19</ele>
        <time>2015-10-12T07:28:02Z</time>
      </trkpt>
      <trkpt lat="46.21577" lon="-0.81709">
        <ele>19</ele>
        <time>2015-10-12T07:28:16Z</time>
      </trkpt>
      <trkpt lat="46.21594" lon="-0.8172">
        <ele>19.4</ele>
        <time>2015-10-12T07:28:30Z</time>
      </trkpt>
      <trkpt lat="46.21607" lon="-0.8174">
        <ele>19.8</ele>
        <time>2015-10-12T07:28:44Z</time>
      </trkpt>
      <trkpt lat="46.21618" lon="-0.81761">
        <ele>19.7</ele>
        <time>2015-10-12T07:28:58Z</time>
      </trkpt>
      <trkpt lat="46.21632" lon="-0.8178">
        <ele>19.7</ele>
        <time>2015-10-12T07:29:12Z</time>
      </trkpt>
      <trkpt lat="46.21635" lon="-0.81783">
        <ele>19.9</ele>
        <time>2015-10-12T07:29:15Z</time>
      </trkpt>
      <trkpt lat="46.21649" lon="-0.81801">
        <ele>20</ele>
        <time>2015-10-12T07:29:29Z</time>
      </trkpt>
      <trkpt lat="46.21657" lon="-0.81806">
        <ele>20</ele>
        <time>2015-10-12T07:29:36Z</time>
      </trkpt>
      <trkpt lat="46.21676" lon="-0.81807">
        <ele>20</ele>
        <time>2015-10-12T07:29:51Z</time>
      </trkpt>
      <trkpt lat="46.21694" lon="-0.81804">
        <ele>20</ele>
        <time>2015-10-12T07:30:05Z</time>
      </trkpt>
      <trkpt lat="46.21713" lon="-0.81798">
        <ele>19.8</ele>
        <time>2015-10-12T07:30:20Z</time>
      </trkpt>
      <trkpt lat="46.2173" lon="-0.81791">
        <ele>19.5</ele>
        <time>2015-10-12T07:30:34Z</time>
      </trkpt>
      <trkpt lat="46.21747" lon="-0.81781">
        <ele>19.8</ele>
        <time>2015-10-12T07:30:47Z</time>
      </trkpt>
      <trkpt lat="46.21764" lon="-0.81773">
        <ele>19.4</ele>
        <time>2015-10-12T07:31:00Z</time>
      </trkpt>
      <trkpt lat="46.21782" lon="-0.81764">
        <ele>19.1</ele>
        <time>2015-10-12T07:31:13Z</time>
      </trkpt>
      <trkpt lat="46.218" lon="-0.81755">
        <ele>19.7</ele>
        <time>2015-10-12T07:31:27Z</time>
      </trkpt>
      <trkpt lat="46.21817" lon="-0.81746">
        <ele>20</ele>
        <time>2015-10-12T07:31:40Z</time>
      </trkpt>
      <trkpt lat="46.21821" lon="-0.81745">
        <ele>20</ele>
        <time>2015-10-12T07:31:43Z</time>
      </trkpt>
      <trkpt lat="46.21825" lon="-0.81743">
        <ele>20</ele>
        <time>2015-10-12T07:31:47Z</time>
      </trkpt>
      <trkpt lat="46.21842" lon="-0.81733">
        <ele>20</ele>
        <time>2015-10-12T07:32:00Z</time>
      </trkpt>
      <trkpt lat="46.2186" lon="-0.81726">
        <ele>20</ele>
        <time>2015-10-12T07:32:13Z</time>
      </trkpt>
      <trkpt lat="46.21877" lon="-0.81722">
        <ele>20.6</ele>
        <time>2015-10-12T07:32:26Z</time>
      </trkpt>
      <trkpt lat="46.21896" lon="-0.81717">
        <ele>21</ele>
        <time>2015-10-12T07:32:39Z</time>
      </trkpt>
      <trkpt lat="46.21914" lon="-0.81711">
        <ele>21.4</ele>
        <time>2015-10-12T07:32:51Z</time>
      </trkpt>
      <trkpt lat="46.21933" lon="-0.81705">
        <ele>21.8</ele>
        <time>2015-10-12T07:33:04Z</time>
      </trkpt>
      <trkpt lat="46.21951" lon="-0.81698">
        <ele>22.3</ele>
        <time>2015-10-12T07:33:17Z</time>
      </trkpt>
      <trkpt lat="46.2197" lon="-0.81693">
        <ele>22.9</ele>
        <time>2015-10-12T07:33:30Z</time>
      </trkpt>
      <trkpt lat="46.21988" lon="-0.81688">
        <ele>23.6</ele>
        <time>2015-10-12T07:33:41Z</time>
      </trkpt>
      <trkpt lat="46.22006" lon="-0.81682">
        <ele>24</ele>
        <time>2015-10-12T07:33:54Z</time>
      </trkpt>
      <trkpt lat="46.22021" lon="-0.81674">
        <ele>24</ele>
        <time>2015-10-12T07:34:05Z</time>
      </trkpt>
      <trkpt lat="46.2204" lon="-0.81669">
        <ele>24.4</ele>
        <time>2015-10-12T07:34:17Z</time>
      </trkpt>
      <trkpt lat="46.22059" lon="-0.81667">
        <ele>25</ele>
        <time>2015-10-12T07:34:30Z</time>
      </trkpt>
      <trkpt lat="46.22077" lon="-0.81664">
        <ele>25</ele>
        <time>2015-10-12T07:34:41Z</time>
      </trkpt>
      <trkpt lat="46.22082" lon="-0.81666">
        <ele>25</ele>
        <time>2015-10-12T07:34:45Z</time>
      </trkpt>
      <trkpt lat="46.22088" lon="-0.81692">
        <ele>25.9</ele>
        <time>2015-10-12T07:35:01Z</time>
      </trkpt>
      <trkpt lat="46.22094" lon="-0.81717">
        <ele>26</ele>
        <time>2015-10-12T07:35:18Z</time>
      </trkpt>
      <trkpt lat="46.22097" lon="-0.81743">
        <ele>26</ele>
        <time>2015-10-12T07:35:32Z</time>
      </trkpt>
      <trkpt lat="46.22101" lon="-0.8177">
        <ele>26</ele>
        <time>2015-10-12T07:35:46Z</time>
      </trkpt>
      <trkpt lat="46.22104" lon="-0.81796">
        <ele>25.8</ele>
        <time>2015-10-12T07:36:01Z</time>
      </trkpt>
      <trkpt lat="46.22107" lon="-0.81823">
        <ele>25.3</ele>
        <time>2015-10-12T07:36:16Z</time>
      </trkpt>
      <trkpt lat="46.22111" lon="-0.81848">
        <ele>25</ele>
        <time>2015-10-12T07:36:31Z</time>
      </trkpt>
      <trkpt lat="46.22113" lon="-0.81875">
        <ele>25.1</ele>
        <time>2015-10-12T07:36:47Z</time>
      </trkpt>
      <trkpt lat="46.22117" lon="-0.81901">
        <ele>25.2</ele>
        <time>2015-10-12T07:37:00Z</time>
      </trkpt>
      <trkpt lat="46.22118" lon="-0.81906">
        <ele>25.2</ele>
        <time>2015-10-12T07:37:04Z</time>
      </trkpt>
      <trkpt lat="46.22122" lon="-0.81932">
        <ele>25.4</ele>
        <time>2015-10-12T07:37:18Z</time>
      </trkpt>
      <trkpt lat="46.22121" lon="-0.81934">
        <ele>25.4</ele>
        <time>2015-10-12T07:37:19Z</time>
      </trkpt>
      <trkpt lat="46.22122" lon="-0.81942">
        <ele>25.4</ele>
        <time>2015-10-12T07:37:23Z</time>
      </trkpt>
      <trkpt lat="46.22125" lon="-0.81968">
        <ele>25.1</ele>
        <time>2015-10-12T07:37:38Z</time>
      </trkpt>
      <trkpt lat="46.22126" lon="-0.81972">
        <ele>25</ele>
        <time>2015-10-12T07:37:40Z</time>
      </trkpt>
      <trkpt lat="46.22127" lon="-0.81981">
        <ele>25</ele>
        <time>2015-10-12T07:37:46Z</time>
      </trkpt>
      <trkpt lat="46.2213" lon="-0.82008">
        <ele>24.9</ele>
        <time>2015-10-12T07:38:00Z</time>
      </trkpt>
      <trkpt lat="46.22133" lon="-0.82028">
        <ele>24.8</ele>
        <time>2015-10-12T07:38:11Z</time>
      </trkpt>
      <trkpt lat="46.22133" lon="-0.82034">
        <ele>24.6</ele>
        <time>2015-10-12T07:38:15Z</time>
      </trkpt>
      <trkpt lat="46.22135" lon="-0.82044">
        <ele>24.4</ele>
        <time>2015-10-12T07:38:22Z</time>
      </trkpt>
      <trkpt lat="46.22136" lon="-0.82063">
        <ele>24</ele>
        <time>2015-10-12T07:38:32Z</time>
      </trkpt>
      <trkpt lat="46.22139" lon="-0.82084">
        <ele>24</ele>
        <time>2015-10-12T07:38:43Z</time>
      </trkpt>
      <trkpt lat="46.22143" lon="-0.82111">
        <ele>23.9</ele>
        <time>2015-10-12T07:38:56Z</time>
      </trkpt>
      <trkpt lat="46.22145" lon="-0.82123">
        <ele>23.6</ele>
        <time>2015-10-12T07:39:01Z</time>
      </trkpt>
      <trkpt lat="46.22148" lon="-0.82149">
        <ele>23.3</ele>
        <time>2015-10-12T07:39:13Z</time>
      </trkpt>
      <trkpt lat="46.22151" lon="-0.82176">
        <ele>23.5</ele>
        <time>2015-10-12T07:39:25Z</time>
      </trkpt>
      <trkpt lat="46.22157" lon="-0.82201">
        <ele>23.5</ele>
        <time>2015-10-12T07:39:44Z</time>
      </trkpt>
      <trkpt lat="46.22174" lon="-0.82192">
        <ele>24</ele>
        <time>2015-10-12T07:40:02Z</time>
      </trkpt>
      <trkpt lat="46.22192" lon="-0.82186">
        <ele>24</ele>
        <time>2015-10-12T07:40:16Z</time>
      </trkpt>
      <trkpt lat="46.22192" lon="-0.82186">
        <ele>24</ele>
        <time>2015-10-12T07:40:17Z</time>
      </trkpt>
      <trkpt lat="46.2221" lon="-0.82188">
        <ele>24.4</ele>
        <time>2015-10-12T07:40:35Z</time>
      </trkpt>
      <trkpt lat="46.22229" lon="-0.82187">
        <ele>24.7</ele>
        <time>2015-10-12T07:40:47Z</time>
      </trkpt>
      <trkpt lat="46.22244" lon="-0.822">
        <ele>25</ele>
        <time>2015-10-12T07:40:59Z</time>
      </trkpt>
      <trkpt lat="46.22257" lon="-0.82218">
        <ele>25.2</ele>
        <time>2015-10-12T07:41:15Z</time>
      </trkpt>
      <trkpt lat="46.22258" lon="-0.82226">
        <ele>25.3</ele>
        <time>2015-10-12T07:41:20Z</time>
      </trkpt>
      <trkpt lat="46.22255" lon="-0.82244">
        <ele>25</ele>
        <time>2015-10-12T07:41:41Z</time>
      </trkpt>
      <trkpt lat="46.22256" lon="-0.8225">
        <ele>25</ele>
        <time>2015-10-12T07:43:26Z</time>
      </trkpt>
      <trkpt lat="46.22263" lon="-0.82252">
        <ele>25</ele>
        <time>2015-10-12T07:44:51Z</time>
      </trkpt>
      <trkpt lat="46.2227" lon="-0.82255">
        <ele>25.1</ele>
        <time>2015-10-12T07:45:04Z</time>
      </trkpt>
      <trkpt lat="46.22288" lon="-0.82255">
        <ele>24.6</ele>
        <time>2015-10-12T07:45:19Z</time>
      </trkpt>
      <trkpt lat="46.223" lon="-0.82243">
        <ele>24.1</ele>
        <time>2015-10-12T07:45:33Z</time>
      </trkpt>
      <trkpt lat="46.22302" lon="-0.82252">
        <ele>23.4</ele>
        <time>2015-10-12T07:45:39Z</time>
      </trkpt>
      <trkpt lat="46.22311" lon="-0.82248">
        <ele>23.7</ele>
        <time>2015-10-12T07:45:42Z</time>
      </trkpt>
      <trkpt lat="46.22324" lon="-0.8223">
        <ele>25.7</ele>
        <time>2015-10-12T07:45:58Z</time>
      </trkpt>
      <trkpt lat="46.2234" lon="-0.82218">
        <ele>26.2</ele>
        <time>2015-10-12T07:46:13Z</time>
      </trkpt>
      <trkpt lat="46.22354" lon="-0.82202">
        <ele>26.7</ele>
        <time>2015-10-12T07:46:27Z</time>
      </trkpt>
      <trkpt lat="46.22361" lon="-0.82196">
        <ele>27</ele>
        <time>2015-10-12T07:46:34Z</time>
      </trkpt>
      <trkpt lat="46.22377" lon="-0.82182">
        <ele>26.8</ele>
        <time>2015-10-12T07:46:47Z</time>
      </trkpt>
      <trkpt lat="46.22378" lon="-0.8218">
        <ele>26.8</ele>
        <time>2015-10-12T07:46:48Z</time>
      </trkpt>
      <trkpt lat="46.22387" lon="-0.82169">
        <ele>26.9</ele>
        <time>2015-10-12T07:46:55Z</time>
      </trkpt>
      <trkpt lat="46.22398" lon="-0.82159">
        <ele>26.8</ele>
        <time>2015-10-12T07:47:04Z</time>
      </trkpt>
      <trkpt lat="46.22411" lon="-0.82141">
        <ele>26.8</ele>
        <time>2015-10-12T07:47:18Z</time>
      </trkpt>
      <trkpt lat="46.22413" lon="-0.82138">
        <ele>26.8</ele>
        <time>2015-10-12T07:47:20Z</time>
      </trkpt>
      <trkpt lat="46.22427" lon="-0.8212">
        <ele>26.6</ele>
        <time>2015-10-12T07:47:34Z</time>
      </trkpt>
      <trkpt lat="46.22432" lon="-0.82116">
        <ele>26.6</ele>
        <time>2015-10-12T07:47:39Z</time>
      </trkpt>
      <trkpt lat="46.22437" lon="-0.82113">
        <ele>26.8</ele>
        <time>2015-10-12T07:47:43Z</time>
      </trkpt>
      <trkpt lat="46.22452" lon="-0.82095">
        <ele>26.6</ele>
        <time>2015-10-12T07:47:56Z</time>
      </trkpt>
      <trkpt lat="46.22468" lon="-0.82078">
        <ele>26.7</ele>
        <time>2015-10-12T07:48:07Z</time>
      </trkpt>
      <trkpt lat="46.22484" lon="-0.82064">
        <ele>26.3</ele>
        <time>2015-10-12T07:48:19Z</time>
      </trkpt>
      <trkpt lat="46.22492" lon="-0.82052">
        <ele>26</ele>
        <time>2015-10-12T07:48:28Z</time>
      </trkpt>
      <trkpt lat="46.22496" lon="-0.82046">
        <ele>26</ele>
        <time>2015-10-12T07:48:34Z</time>
      </trkpt>
      <trkpt lat="46.22497" lon="-0.82046">
        <ele>26</ele>
        <time>2015-10-12T07:48:36Z</time>
      </trkpt>
      <trkpt lat="46.22511" lon="-0.82031">
        <ele>25.6</ele>
        <time>2015-10-12T07:49:12Z</time>
      </trkpt>
      <trkpt lat="46.22526" lon="-0.82014">
        <ele>25</ele>
        <time>2015-10-12T07:49:30Z</time>
      </trkpt>
      <trkpt lat="46.22541" lon="-0.81999">
        <ele>25</ele>
        <time>2015-10-12T07:49:44Z</time>
      </trkpt>
      <trkpt lat="46.22557" lon="-0.81985">
        <ele>25.5</ele>
        <time>2015-10-12T07:49:58Z</time>
      </trkpt>
      <trkpt lat="46.22571" lon="-0.81969">
        <ele>26</ele>
        <time>2015-10-12T07:50:10Z</time>
      </trkpt>
      <trkpt lat="46.22583" lon="-0.8196">
        <ele>26</ele>
        <time>2015-10-12T07:50:19Z</time>
      </trkpt>
      <trkpt lat="46.22594" lon="-0.81947">
        <ele>26</ele>
        <time>2015-10-12T07:50:30Z</time>
      </trkpt>
      <trkpt lat="46.22602" lon="-0.81938">
        <ele>26.1</ele>
        <time>2015-10-12T07:50:38Z</time>
      </trkpt>
      <trkpt lat="46.22617" lon="-0.81922">
        <ele>25.8</ele>
        <time>2015-10-12T07:50:52Z</time>
      </trkpt>
      <trkpt lat="46.22623" lon="-0.81915">
        <ele>25.6</ele>
        <time>2015-10-12T07:50:58Z</time>
      </trkpt>
      <trkpt lat="46.22633" lon="-0.81903">
        <ele>25.6</ele>
        <time>2015-10-12T07:51:08Z</time>
      </trkpt>
      <trkpt lat="46.22648" lon="-0.81887">
        <ele>25.7</ele>
        <time>2015-10-12T07:51:22Z</time>
      </trkpt>
      <trkpt lat="46.22657" lon="-0.81874">
        <ele>25.4</ele>
        <time>2015-10-12T07:51:31Z</time>
      </trkpt>
      <trkpt lat="46.22663" lon="-0.8187">
        <ele>25.1</ele>
        <time>2015-10-12T07:51:36Z</time>
      </trkpt>
      <trkpt lat="46.22674" lon="-0.81859">
        <ele>25.1</ele>
        <time>2015-10-12T07:51:47Z</time>
      </trkpt>
      <trkpt lat="46.22688" lon="-0.81842">
        <ele>25.2</ele>
        <time>2015-10-12T07:51:59Z</time>
      </trkpt>
      <trkpt lat="46.22697" lon="-0.81833">
        <ele>25</ele>
        <time>2015-10-12T07:52:06Z</time>
      </trkpt>
      <trkpt lat="46.22711" lon="-0.81816">
        <ele>25.2</ele>
        <time>2015-10-12T07:52:20Z</time>
      </trkpt>
      <trkpt lat="46.22721" lon="-0.81803">
        <ele>25.1</ele>
        <time>2015-10-12T07:52:30Z</time>
      </trkpt>
      <trkpt lat="46.22736" lon="-0.81786">
        <ele>25.5</ele>
        <time>2015-10-12T07:52:43Z</time>
      </trkpt>
      <trkpt lat="46.22741" lon="-0.81781">
        <ele>25.7</ele>
        <time>2015-10-12T07:52:48Z</time>
      </trkpt>
      <trkpt lat="46.2275" lon="-0.8177">
        <ele>26</ele>
        <time>2015-10-12T07:52:58Z</time>
      </trkpt>
      <trkpt lat="46.22764" lon="-0.81751">
        <ele>26.5</ele>
        <time>2015-10-12T07:53:14Z</time>
      </trkpt>
      <trkpt lat="46.22779" lon="-0.81736">
        <ele>27.1</ele>
        <time>2015-10-12T07:53:28Z</time>
      </trkpt>
      <trkpt lat="46.2279" lon="-0.81725">
        <ele>27.8</ele>
        <time>2015-10-12T07:53:38Z</time>
      </trkpt>
      <trkpt lat="46.22797" lon="-0.8172">
        <ele>28.4</ele>
        <time>2015-10-12T07:53:44Z</time>
      </trkpt>
      <trkpt lat="46.228" lon="-0.81716">
        <ele>28.6</ele>
        <time>2015-10-12T07:53:48Z</time>
      </trkpt>
      <trkpt lat="46.22802" lon="-0.81713">
        <ele>28.7</ele>
        <time>2015-10-12T07:53:55Z</time>
      </trkpt>
      <trkpt lat="46.22806" lon="-0.81707">
        <ele>29</ele>
        <time>2015-10-12T07:54:00Z</time>
      </trkpt>
      <trkpt lat="46.2282" lon="-0.8169">
        <ele>29.5</ele>
        <time>2015-10-12T07:54:12Z</time>
      </trkpt>
      <trkpt lat="46.22837" lon="-0.81675">
        <ele>30</ele>
        <time>2015-10-12T07:54:26Z</time>
      </trkpt>
      <trkpt lat="46.22851" lon="-0.8166">
        <ele>30.2</ele>
        <time>2015-10-12T07:54:39Z</time>
      </trkpt>
      <trkpt lat="46.22866" lon="-0.81643">
        <ele>30.9</ele>
        <time>2015-10-12T07:54:52Z</time>
      </trkpt>
      <trkpt lat="46.22869" lon="-0.81639">
        <ele>31</ele>
        <time>2015-10-12T07:54:55Z</time>
      </trkpt>
      <trkpt lat="46.22875" lon="-0.81632">
        <ele>31</ele>
        <time>2015-10-12T07:55:00Z</time>
      </trkpt>
      <trkpt lat="46.22876" lon="-0.81631">
        <ele>31</ele>
        <time>2015-10-12T07:55:01Z</time>
      </trkpt>
      <trkpt lat="46.22889" lon="-0.81619">
        <ele>31</ele>
        <time>2015-10-12T07:55:11Z</time>
      </trkpt>
      <trkpt lat="46.22903" lon="-0.81604">
        <ele>31</ele>
        <time>2015-10-12T07:55:24Z</time>
      </trkpt>
      <trkpt lat="46.22919" lon="-0.81589">
        <ele>30.9</ele>
        <time>2015-10-12T07:55:37Z</time>
      </trkpt>
      <trkpt lat="46.22934" lon="-0.81572">
        <ele>30.4</ele>
        <time>2015-10-12T07:55:50Z</time>
      </trkpt>
      <trkpt lat="46.22935" lon="-0.81569">
        <ele>30.4</ele>
        <time>2015-10-12T07:55:53Z</time>
      </trkpt>
      <trkpt lat="46.22949" lon="-0.81554">
        <ele>30</ele>
        <time>2015-10-12T07:56:14Z</time>
      </trkpt>
      <trkpt lat="46.2296" lon="-0.81547">
        <ele>30</ele>
        <time>2015-10-12T07:56:22Z</time>
      </trkpt>
      <trkpt lat="46.22975" lon="-0.81533">
        <ele>30</ele>
        <time>2015-10-12T07:56:35Z</time>
      </trkpt>
      <trkpt lat="46.22978" lon="-0.8153">
        <ele>30</ele>
        <time>2015-10-12T07:56:38Z</time>
      </trkpt>
      <trkpt lat="46.22983" lon="-0.81523">
        <ele>30</ele>
        <time>2015-10-12T07:56:44Z</time>
      </trkpt>
      <trkpt lat="46.22984" lon="-0.81521">
        <ele>30</ele>
        <time>2015-10-12T07:56:45Z</time>
      </trkpt>
      <trkpt lat="46.22988" lon="-0.81514">
        <ele>30</ele>
        <time>2015-10-12T07:56:51Z</time>
      </trkpt>
      <trkpt lat="46.23004" lon="-0.81498">
        <ele>30</ele>
        <time>2015-10-12T07:57:05Z</time>
      </trkpt>
      <trkpt lat="46.2302" lon="-0.81485">
        <ele>30.4</ele>
        <time>2015-10-12T07:57:20Z</time>
      </trkpt>
      <trkpt lat="46.23033" lon="-0.81466">
        <ele>31</ele>
        <time>2015-10-12T07:57:36Z</time>
      </trkpt>
      <trkpt lat="46.23046" lon="-0.81455">
        <ele>31.4</ele>
        <time>2015-10-12T07:57:47Z</time>
      </trkpt>
      <trkpt lat="46.23049" lon="-0.8145">
        <ele>31.6</ele>
        <time>2015-10-12T07:57:51Z</time>
      </trkpt>
      <trkpt lat="46.2305" lon="-0.81447">
        <ele>31.7</ele>
        <time>2015-10-12T07:57:53Z</time>
      </trkpt>
      <trkpt lat="46.23061" lon="-0.81437">
        <ele>32.1</ele>
        <time>2015-10-12T07:58:03Z</time>
      </trkpt>
      <trkpt lat="46.23076" lon="-0.81421">
        <ele>32.6</ele>
        <time>2015-10-12T07:58:18Z</time>
      </trkpt>
      <trkpt lat="46.2309" lon="-0.81405">
        <ele>33.1</ele>
        <time>2015-10-12T07:58:33Z</time>
      </trkpt>
      <trkpt lat="46.231" lon="-0.81396">
        <ele>33.4</ele>
        <time>2015-10-12T07:58:43Z</time>
      </trkpt>
      <trkpt lat="46.2311" lon="-0.81389">
        <ele>34</ele>
        <time>2015-10-12T07:58:54Z</time>
      </trkpt>
      <trkpt lat="46.23118" lon="-0.81387">
        <ele>34</ele>
        <time>2015-10-12T07:59:00Z</time>
      </trkpt>
      <trkpt lat="46.23116" lon="-0.81383">
        <ele>34</ele>
        <time>2015-10-12T07:59:08Z</time>
      </trkpt>
      <trkpt lat="46.23131" lon="-0.81385">
        <ele>34</ele>
        <time>2015-10-12T07:59:27Z</time>
      </trkpt>
      <trkpt lat="46.23148" lon="-0.81388">
        <ele>34.3</ele>
        <time>2015-10-12T07:59:41Z</time>
      </trkpt>
      <trkpt lat="46.23166" lon="-0.8139">
        <ele>34.9</ele>
        <time>2015-10-12T08:00:15Z</time>
      </trkpt>
      <trkpt lat="46.23184" lon="-0.81387">
        <ele>35</ele>
        <time>2015-10-12T08:00:32Z</time>
      </trkpt>
      <trkpt lat="46.23202" lon="-0.81388">
        <ele>35.3</ele>
        <time>2015-10-12T08:00:51Z</time>
      </trkpt>
      <trkpt lat="46.23217" lon="-0.81381">
        <ele>35.8</ele>
        <time>2015-10-12T08:01:22Z</time>
      </trkpt>
      <trkpt lat="46.23217" lon="-0.81381">
        <ele>35.8</ele>
        <time>2015-10-12T08:02:03Z</time>
      </trkpt>
      <trkpt lat="46.23219" lon="-0.8138">
        <ele>35.9</ele>
        <time>2015-10-12T08:02:21Z</time>
      </trkpt>
      <trkpt lat="46.23236" lon="-0.81372">
        <ele>36.5</ele>
        <time>2015-10-12T08:02:39Z</time>
      </trkpt>
      <trkpt lat="46.23254" lon="-0.81377">
        <ele>37</ele>
        <time>2015-10-12T08:02:59Z</time>
      </trkpt>
      <trkpt lat="46.23259" lon="-0.81375">
        <ele>37</ele>
        <time>2015-10-12T08:03:06Z</time>
      </trkpt>
      <trkpt lat="46.23263" lon="-0.8137">
        <ele>37</ele>
        <time>2015-10-12T08:03:11Z</time>
      </trkpt>
      <trkpt lat="46.23269" lon="-0.81371">
        <ele>37</ele>
        <time>2015-10-12T08:03:16Z</time>
      </trkpt>
      <trkpt lat="46.23287" lon="-0.81375">
        <ele>37.3</ele>
        <time>2015-10-12T08:03:33Z</time>
      </trkpt>
      <trkpt lat="46.23306" lon="-0.81378">
        <ele>38</ele>
        <time>2015-10-12T08:03:48Z</time>
      </trkpt>
      <trkpt lat="46.23324" lon="-0.81384">
        <ele>38</ele>
        <time>2015-10-12T08:04:05Z</time>
      </trkpt>
      <trkpt lat="46.23342" lon="-0.81386">
        <ele>38.3</ele>
        <time>2015-10-12T08:04:19Z</time>
      </trkpt>
      <trkpt lat="46.23361" lon="-0.81384">
        <ele>38.8</ele>
        <time>2015-10-12T08:04:35Z</time>
      </trkpt>
      <trkpt lat="46.2338" lon="-0.81384">
        <ele>38.9</ele>
        <time>2015-10-12T08:04:51Z</time>
      </trkpt>
      <trkpt lat="46.23398" lon="-0.81384">
        <ele>39</ele>
        <time>2015-10-12T08:05:05Z</time>
      </trkpt>
      <trkpt lat="46.23417" lon="-0.8138">
        <ele>39</ele>
        <time>2015-10-12T08:05:20Z</time>
      </trkpt>
      <trkpt lat="46.23435" lon="-0.81377">
        <ele>39.7</ele>
        <time>2015-10-12T08:05:34Z</time>
      </trkpt>
      <trkpt lat="46.23453" lon="-0.81375">
        <ele>40</ele>
        <time>2015-10-12T08:05:48Z</time>
      </trkpt>
      <trkpt lat="46.23461" lon="-0.81373">
        <ele>40</ele>
        <time>2015-10-12T08:05:55Z</time>
      </trkpt>
      <trkpt lat="46.23465" lon="-0.81359">
        <ele>40</ele>
        <time>2015-10-12T08:06:03Z</time>
      </trkpt>
      <trkpt lat="46.23466" lon="-0.81332">
        <ele>40</ele>
        <time>2015-10-12T08:06:18Z</time>
      </trkpt>
      <trkpt lat="46.23467" lon="-0.81306">
        <ele>40</ele>
        <time>2015-10-12T08:06:31Z</time>
      </trkpt>
      <trkpt lat="46.23479" lon="-0.81288">
        <ele>40.7</ele>
        <time>2015-10-12T08:06:44Z</time>
      </trkpt>
      <trkpt lat="46.23497" lon="-0.81283">
        <ele>41</ele>
        <time>2015-10-12T08:06:58Z</time>
      </trkpt>
      <trkpt lat="46.23515" lon="-0.81281">
        <ele>40.9</ele>
        <time>2015-10-12T08:07:11Z</time>
      </trkpt>
      <trkpt lat="46.23523" lon="-0.81278">
        <ele>41</ele>
        <time>2015-10-12T08:07:19Z</time>
      </trkpt>
      <trkpt lat="46.23526" lon="-0.81251">
        <ele>40.1</ele>
        <time>2015-10-12T08:07:35Z</time>
      </trkpt>
      <trkpt lat="46.23525" lon="-0.81225">
        <ele>40.9</ele>
        <time>2015-10-12T08:07:48Z</time>
      </trkpt>
      <trkpt lat="46.23522" lon="-0.81197">
        <ele>41</ele>
        <time>2015-10-12T08:08:01Z</time>
      </trkpt>
      <trkpt lat="46.23518" lon="-0.81172">
        <ele>41</ele>
        <time>2015-10-12T08:08:13Z</time>
      </trkpt>
      <trkpt lat="46.23517" lon="-0.81164">
        <ele>41</ele>
        <time>2015-10-12T08:08:17Z</time>
      </trkpt>
      <trkpt lat="46.23514" lon="-0.8115">
        <ele>41</ele>
        <time>2015-10-12T08:08:24Z</time>
      </trkpt>
      <trkpt lat="46.23511" lon="-0.81123">
        <ele>41</ele>
        <time>2015-10-12T08:08:37Z</time>
      </trkpt>
      <trkpt lat="46.2351" lon="-0.81107">
        <ele>41</ele>
        <time>2015-10-12T08:08:45Z</time>
      </trkpt>
      <trkpt lat="46.23506" lon="-0.8108">
        <ele>41</ele>
        <time>2015-10-12T08:09:00Z</time>
      </trkpt>
      <trkpt lat="46.23504" lon="-0.81052">
        <ele>41</ele>
        <time>2015-10-12T08:09:15Z</time>
      </trkpt>
      <trkpt lat="46.23503" lon="-0.81041">
        <ele>41</ele>
        <time>2015-10-12T08:09:20Z</time>
      </trkpt>
      <trkpt lat="46.23501" lon="-0.81015">
        <ele>41</ele>
        <time>2015-10-12T08:09:31Z</time>
      </trkpt>
      <trkpt lat="46.23497" lon="-0.8099">
        <ele>41</ele>
        <time>2015-10-12T08:09:43Z</time>
      </trkpt>
      <trkpt lat="46.23498" lon="-0.80963">
        <ele>41</ele>
        <time>2015-10-12T08:09:55Z</time>
      </trkpt>
      <trkpt lat="46.23499" lon="-0.80937">
        <ele>41</ele>
        <time>2015-10-12T08:10:07Z</time>
      </trkpt>
      <trkpt lat="46.23493" lon="-0.80912">
        <ele>41</ele>
        <time>2015-10-12T08:10:19Z</time>
      </trkpt>
      <trkpt lat="46.23484" lon="-0.80889">
        <ele>41</ele>
        <time>2015-10-12T08:10:31Z</time>
      </trkpt>
      <trkpt lat="46.23469" lon="-0.80872">
        <ele>41.1</ele>
        <time>2015-10-12T08:10:44Z</time>
      </trkpt>
      <trkpt lat="46.23467" lon="-0.80868">
        <ele>41.2</ele>
        <time>2015-10-12T08:10:47Z</time>
      </trkpt>
      <trkpt lat="46.23464" lon="-0.80855">
        <ele>41.3</ele>
        <time>2015-10-12T08:10:53Z</time>
      </trkpt>
      <trkpt lat="46.23459" lon="-0.8083">
        <ele>41.5</ele>
        <time>2015-10-12T08:11:06Z</time>
      </trkpt>
      <trkpt lat="46.23455" lon="-0.8082">
        <ele>41.6</ele>
        <time>2015-10-12T08:11:11Z</time>
      </trkpt>
      <trkpt lat="46.23454" lon="-0.80814">
        <ele>41.7</ele>
        <time>2015-10-12T08:11:16Z</time>
      </trkpt>
      <trkpt lat="46.23456" lon="-0.80805">
        <ele>41.6</ele>
        <time>2015-10-12T08:11:20Z</time>
      </trkpt>
      <trkpt lat="46.2346" lon="-0.80779">
        <ele>41.4</ele>
        <time>2015-10-12T08:11:32Z</time>
      </trkpt>
      <trkpt lat="46.23462" lon="-0.80752">
        <ele>41.4</ele>
        <time>2015-10-12T08:11:44Z</time>
      </trkpt>
      <trkpt lat="46.23465" lon="-0.80726">
        <ele>41.3</ele>
        <time>2015-10-12T08:11:56Z</time>
      </trkpt>
      <trkpt lat="46.23466" lon="-0.80724">
        <ele>41.2</ele>
        <time>2015-10-12T08:11:57Z</time>
      </trkpt>
      <trkpt lat="46.23467" lon="-0.80696">
        <ele>41.2</ele>
        <time>2015-10-12T08:12:10Z</time>
      </trkpt>
      <trkpt lat="46.23471" lon="-0.80671">
        <ele>41</ele>
        <time>2015-10-12T08:12:23Z</time>
      </trkpt>
      <trkpt lat="46.23472" lon="-0.80645">
        <ele>41</ele>
        <time>2015-10-12T08:12:35Z</time>
      </trkpt>
      <trkpt lat="46.2347" lon="-0.80618">
        <ele>41.1</ele>
        <time>2015-10-12T08:12:47Z</time>
      </trkpt>
      <trkpt lat="46.23471" lon="-0.8059">
        <ele>40.3</ele>
        <time>2015-10-12T08:12:59Z</time>
      </trkpt>
      <trkpt lat="46.23473" lon="-0.80563">
        <ele>40</ele>
        <time>2015-10-12T08:13:10Z</time>
      </trkpt>
      <trkpt lat="46.23473" lon="-0.80536">
        <ele>39.9</ele>
        <time>2015-10-12T08:13:21Z</time>
      </trkpt>
      <trkpt lat="46.23473" lon="-0.8051">
        <ele>39.3</ele>
        <time>2015-10-12T08:13:32Z</time>
      </trkpt>
      <trkpt lat="46.23477" lon="-0.80482">
        <ele>38.8</ele>
        <time>2015-10-12T08:13:43Z</time>
      </trkpt>
      <trkpt lat="46.2348" lon="-0.80456">
        <ele>38.7</ele>
        <time>2015-10-12T08:13:54Z</time>
      </trkpt>
      <trkpt lat="46.23487" lon="-0.8043">
        <ele>38.5</ele>
        <time>2015-10-12T08:14:05Z</time>
      </trkpt>
      <trkpt lat="46.23487" lon="-0.80402">
        <ele>38.2</ele>
        <time>2015-10-12T08:14:18Z</time>
      </trkpt>
      <trkpt lat="46.23486" lon="-0.80398">
        <ele>38.2</ele>
        <time>2015-10-12T08:14:20Z</time>
      </trkpt>
      <trkpt lat="46.23484" lon="-0.80371">
        <ele>38.2</ele>
        <time>2015-10-12T08:14:31Z</time>
      </trkpt>
      <trkpt lat="46.23483" lon="-0.80361">
        <ele>38.2</ele>
        <time>2015-10-12T08:14:35Z</time>
      </trkpt>
      <trkpt lat="46.23478" lon="-0.80335">
        <ele>37.9</ele>
        <time>2015-10-12T08:14:46Z</time>
      </trkpt>
      <trkpt lat="46.23477" lon="-0.80323">
        <ele>37.8</ele>
        <time>2015-10-12T08:14:51Z</time>
      </trkpt>
      <trkpt lat="46.23477" lon="-0.80316">
        <ele>37.8</ele>
        <time>2015-10-12T08:14:54Z</time>
      </trkpt>
      <trkpt lat="46.23481" lon="-0.8029">
        <ele>37.5</ele>
        <time>2015-10-12T08:15:06Z</time>
      </trkpt>
      <trkpt lat="46.23481" lon="-0.80287">
        <ele>37.5</ele>
        <time>2015-10-12T08:15:07Z</time>
      </trkpt>
      <trkpt lat="46.23482" lon="-0.80261">
        <ele>36.9</ele>
        <time>2015-10-12T08:15:20Z</time>
      </trkpt>
      <trkpt lat="46.23478" lon="-0.8025">
        <ele>36.8</ele>
        <time>2015-10-12T08:15:26Z</time>
      </trkpt>
      <trkpt lat="46.23478" lon="-0.80244">
        <ele>36.8</ele>
        <time>2015-10-12T08:15:30Z</time>
      </trkpt>
      <trkpt lat="46.23473" lon="-0.80218">
        <ele>37</ele>
        <time>2015-10-12T08:15:45Z</time>
      </trkpt>
      <trkpt lat="46.23472" lon="-0.80213">
        <ele>37</ele>
        <time>2015-10-12T08:15:48Z</time>
      </trkpt>
      <trkpt lat="46.2347" lon="-0.80205">
        <ele>37.1</ele>
        <time>2015-10-12T08:15:52Z</time>
      </trkpt>
      <trkpt lat="46.23466" lon="-0.80189">
        <ele>37.1</ele>
        <time>2015-10-12T08:16:00Z</time>
      </trkpt>
      <trkpt lat="46.2346" lon="-0.80164">
        <ele>36.8</ele>
        <time>2015-10-12T08:16:12Z</time>
      </trkpt>
      <trkpt lat="46.23454" lon="-0.80139">
        <ele>36.7</ele>
        <time>2015-10-12T08:16:24Z</time>
      </trkpt>
      <trkpt lat="46.2345" lon="-0.80114">
        <ele>36.8</ele>
        <time>2015-10-12T08:16:36Z</time>
      </trkpt>
      <trkpt lat="46.23443" lon="-0.80088">
        <ele>37.9</ele>
        <time>2015-10-12T08:16:47Z</time>
      </trkpt>
      <trkpt lat="46.23435" lon="-0.80065">
        <ele>37.6</ele>
        <time>2015-10-12T08:16:58Z</time>
      </trkpt>
      <trkpt lat="46.23433" lon="-0.80037">
        <ele>37.4</ele>
        <time>2015-10-12T08:17:10Z</time>
      </trkpt>
      <trkpt lat="46.23434" lon="-0.8001">
        <ele>37</ele>
        <time>2015-10-12T08:17:21Z</time>
      </trkpt>
      <trkpt lat="46.23437" lon="-0.79985">
        <ele>36.5</ele>
        <time>2015-10-12T08:17:33Z</time>
      </trkpt>
      <trkpt lat="46.23446" lon="-0.79962">
        <ele>35.9</ele>
        <time>2015-10-12T08:17:45Z</time>
      </trkpt>
      <trkpt lat="46.23456" lon="-0.79952">
        <ele>35.6</ele>
        <time>2015-10-12T08:17:53Z</time>
      </trkpt>
      <trkpt lat="46.23473" lon="-0.79941">
        <ele>34.8</ele>
        <time>2015-10-12T08:18:06Z</time>
      </trkpt>
      <trkpt lat="46.23476" lon="-0.79939">
        <ele>34.5</ele>
        <time>2015-10-12T08:18:08Z</time>
      </trkpt>
      <trkpt lat="46.23494" lon="-0.79932">
        <ele>33.3</ele>
        <time>2015-10-12T08:18:20Z</time>
      </trkpt>
      <trkpt lat="46.23512" lon="-0.79927">
        <ele>32.3</ele>
        <time>2015-10-12T08:18:35Z</time>
      </trkpt>
      <trkpt lat="46.2353" lon="-0.79918">
        <ele>31</ele>
        <time>2015-10-12T08:18:49Z</time>
      </trkpt>
      <trkpt lat="46.23547" lon="-0.79908">
        <ele>30.3</ele>
        <time>2015-10-12T08:19:02Z</time>
      </trkpt>
      <trkpt lat="46.23548" lon="-0.79907">
        <ele>30.3</ele>
        <time>2015-10-12T08:19:04Z</time>
      </trkpt>
      <trkpt lat="46.23552" lon="-0.79899">
        <ele>30.1</ele>
        <time>2015-10-12T08:21:03Z</time>
      </trkpt>
      <trkpt lat="46.23554" lon="-0.79903">
        <ele>30.1</ele>
        <time>2015-10-12T08:23:31Z</time>
      </trkpt>
      <trkpt lat="46.23554" lon="-0.79905">
        <ele>30.1</ele>
        <time>2015-10-12T08:24:35Z</time>
      </trkpt>
      <trkpt lat="46.23556" lon="-0.79903">
        <ele>30</ele>
        <time>2015-10-12T08:26:26Z</time>
      </trkpt>
      <trkpt lat="46.23569" lon="-0.79887">
        <ele>29</ele>
        <time>2015-10-12T08:26:59Z</time>
      </trkpt>
      <trkpt lat="46.23567" lon="-0.79861">
        <ele>28.6</ele>
        <time>2015-10-12T08:27:17Z</time>
      </trkpt>
      <trkpt lat="46.2357" lon="-0.79835">
        <ele>28.5</ele>
        <time>2015-10-12T08:27:32Z</time>
      </trkpt>
      <trkpt lat="46.2358" lon="-0.79824">
        <ele>28.1</ele>
        <time>2015-10-12T08:27:44Z</time>
      </trkpt>
      <trkpt lat="46.23586" lon="-0.79823">
        <ele>27.9</ele>
        <time>2015-10-12T08:27:49Z</time>
      </trkpt>
      <trkpt lat="46.23604" lon="-0.79816">
        <ele>27.2</ele>
        <time>2015-10-12T08:28:02Z</time>
      </trkpt>
      <trkpt lat="46.23621" lon="-0.79804">
        <ele>26.7</ele>
        <time>2015-10-12T08:28:15Z</time>
      </trkpt>
      <trkpt lat="46.23622" lon="-0.79802">
        <ele>26.7</ele>
        <time>2015-10-12T08:28:16Z</time>
      </trkpt>
      <trkpt lat="46.23616" lon="-0.79791">
        <ele>26.9</ele>
        <time>2015-10-12T08:28:28Z</time>
      </trkpt>
      <trkpt lat="46.23599" lon="-0.79799">
        <ele>27.4</ele>
        <time>2015-10-12T08:28:44Z</time>
      </trkpt>
      <trkpt lat="46.2358" lon="-0.79801">
        <ele>28.1</ele>
        <time>2015-10-12T08:29:02Z</time>
      </trkpt>
      <trkpt lat="46.23563" lon="-0.79808">
        <ele>28.7</ele>
        <time>2015-10-12T08:29:17Z</time>
      </trkpt>
      <trkpt lat="46.23561" lon="-0.79812">
        <ele>28.8</ele>
        <time>2015-10-12T08:29:20Z</time>
      </trkpt>
      <trkpt lat="46.23556" lon="-0.79814">
        <ele>29</ele>
        <time>2015-10-12T08:29:25Z</time>
      </trkpt>
      <trkpt lat="46.23538" lon="-0.79821">
        <ele>29.6</ele>
        <time>2015-10-12T08:29:39Z</time>
      </trkpt>
      <trkpt lat="46.23537" lon="-0.79822">
        <ele>29.7</ele>
        <time>2015-10-12T08:29:40Z</time>
      </trkpt>
      <trkpt lat="46.23528" lon="-0.79827">
        <ele>30</ele>
        <time>2015-10-12T08:29:51Z</time>
      </trkpt>
      <trkpt lat="46.23522" lon="-0.79831">
        <ele>30.2</ele>
        <time>2015-10-12T08:29:56Z</time>
      </trkpt>
      <trkpt lat="46.23503" lon="-0.79836">
        <ele>30.9</ele>
        <time>2015-10-12T08:30:08Z</time>
      </trkpt>
      <trkpt lat="46.23484" lon="-0.7984">
        <ele>31.7</ele>
        <time>2015-10-12T08:30:19Z</time>
      </trkpt>
      <trkpt lat="46.23468" lon="-0.79852">
        <ele>33</ele>
        <time>2015-10-12T08:30:35Z</time>
      </trkpt>
      <trkpt lat="46.23457" lon="-0.79859">
        <ele>34</ele>
        <time>2015-10-12T08:30:46Z</time>
      </trkpt>
      <trkpt lat="46.23449" lon="-0.79863">
        <ele>34.7</ele>
        <time>2015-10-12T08:30:52Z</time>
      </trkpt>
      <trkpt lat="46.23436" lon="-0.79874">
        <ele>35.6</ele>
        <time>2015-10-12T08:31:05Z</time>
      </trkpt>
      <trkpt lat="46.23419" lon="-0.79885">
        <ele>36.9</ele>
        <time>2015-10-12T08:31:19Z</time>
      </trkpt>
      <trkpt lat="46.23401" lon="-0.79896">
        <ele>37.7</ele>
        <time>2015-10-12T08:31:34Z</time>
      </trkpt>
      <trkpt lat="46.23396" lon="-0.799">
        <ele>38.1</ele>
        <time>2015-10-12T08:31:40Z</time>
      </trkpt>
      <trkpt lat="46.23379" lon="-0.79913">
        <ele>39.2</ele>
        <time>2015-10-12T08:31:56Z</time>
      </trkpt>
      <trkpt lat="46.23371" lon="-0.79918">
        <ele>39.6</ele>
        <time>2015-10-12T08:32:04Z</time>
      </trkpt>
      <trkpt lat="46.23353" lon="-0.79923">
        <ele>40.3</ele>
        <time>2015-10-12T08:32:20Z</time>
      </trkpt>
      <trkpt lat="46.23342" lon="-0.79926">
        <ele>40.7</ele>
        <time>2015-10-12T08:32:32Z</time>
      </trkpt>
      <trkpt lat="46.23323" lon="-0.79928">
        <ele>41</ele>
        <time>2015-10-12T08:32:44Z</time>
      </trkpt>
      <trkpt lat="46.23317" lon="-0.7993">
        <ele>41</ele>
        <time>2015-10-12T08:32:49Z</time>
      </trkpt>
      <trkpt lat="46.23311" lon="-0.79933">
        <ele>41</ele>
        <time>2015-10-12T08:32:54Z</time>
      </trkpt>
      <trkpt lat="46.23293" lon="-0.79943">
        <ele>41.5</ele>
        <time>2015-10-12T08:33:06Z</time>
      </trkpt>
      <trkpt lat="46.23276" lon="-0.79955">
        <ele>42</ele>
        <time>2015-10-12T08:33:20Z</time>
      </trkpt>
      <trkpt lat="46.23263" lon="-0.7996">
        <ele>42</ele>
        <time>2015-10-12T08:33:31Z</time>
      </trkpt>
      <trkpt lat="46.23255" lon="-0.79963">
        <ele>42</ele>
        <time>2015-10-12T08:33:38Z</time>
      </trkpt>
      <trkpt lat="46.23238" lon="-0.7997">
        <ele>42.4</ele>
        <time>2015-10-12T08:33:53Z</time>
      </trkpt>
      <trkpt lat="46.2322" lon="-0.79977">
        <ele>43</ele>
        <time>2015-10-12T08:34:07Z</time>
      </trkpt>
      <trkpt lat="46.23201" lon="-0.79981">
        <ele>43</ele>
        <time>2015-10-12T08:34:21Z</time>
      </trkpt>
      <trkpt lat="46.23183" lon="-0.79989">
        <ele>43.3</ele>
        <time>2015-10-12T08:34:37Z</time>
      </trkpt>
      <trkpt lat="46.23167" lon="-0.79994">
        <ele>43.8</ele>
        <time>2015-10-12T08:34:50Z</time>
      </trkpt>
      <trkpt lat="46.23157" lon="-0.79997">
        <ele>43.9</ele>
        <time>2015-10-12T08:35:00Z</time>
      </trkpt>
      <trkpt lat="46.2315" lon="-0.80001">
        <ele>44</ele>
        <time>2015-10-12T08:35:06Z</time>
      </trkpt>
      <trkpt lat="46.23134" lon="-0.80016">
        <ele>44</ele>
        <time>2015-10-12T08:35:21Z</time>
      </trkpt>
      <trkpt lat="46.23118" lon="-0.80029">
        <ele>44</ele>
        <time>2015-10-12T08:35:35Z</time>
      </trkpt>
      <trkpt lat="46.23102" lon="-0.80039">
        <ele>43.7</ele>
        <time>2015-10-12T08:35:48Z</time>
      </trkpt>
      <trkpt lat="46.231" lon="-0.8004">
        <ele>43.6</ele>
        <time>2015-10-12T08:35:49Z</time>
      </trkpt>
      <trkpt lat="46.23084" lon="-0.80053">
        <ele>43</ele>
        <time>2015-10-12T08:36:05Z</time>
      </trkpt>
      <trkpt lat="46.23082" lon="-0.80056">
        <ele>43</ele>
        <time>2015-10-12T08:36:08Z</time>
      </trkpt>
      <trkpt lat="46.23074" lon="-0.80062">
        <ele>43</ele>
        <time>2015-10-12T08:36:14Z</time>
      </trkpt>
      <trkpt lat="46.23061" lon="-0.80074">
        <ele>43</ele>
        <time>2015-10-12T08:36:25Z</time>
      </trkpt>
      <trkpt lat="46.23053" lon="-0.8008">
        <ele>42.9</ele>
        <time>2015-10-12T08:36:31Z</time>
      </trkpt>
      <trkpt lat="46.23051" lon="-0.80082">
        <ele>42.8</ele>
        <time>2015-10-12T08:36:33Z</time>
      </trkpt>
      <trkpt lat="46.23036" lon="-0.80097">
        <ele>42.3</ele>
        <time>2015-10-12T08:36:48Z</time>
      </trkpt>
      <trkpt lat="46.23021" lon="-0.80111">
        <ele>42</ele>
        <time>2015-10-12T08:37:05Z</time>
      </trkpt>
      <trkpt lat="46.23006" lon="-0.80128">
        <ele>41.5</ele>
        <time>2015-10-12T08:37:18Z</time>
      </trkpt>
      <trkpt lat="46.22991" lon="-0.80143">
        <ele>41</ele>
        <time>2015-10-12T08:37:31Z</time>
      </trkpt>
      <trkpt lat="46.22974" lon="-0.80155">
        <ele>41</ele>
        <time>2015-10-12T08:37:46Z</time>
      </trkpt>
      <trkpt lat="46.22958" lon="-0.80167">
        <ele>40.5</ele>
        <time>2015-10-12T08:38:01Z</time>
      </trkpt>
      <trkpt lat="46.22941" lon="-0.80177">
        <ele>39.9</ele>
        <time>2015-10-12T08:38:16Z</time>
      </trkpt>
      <trkpt lat="46.22924" lon="-0.80188">
        <ele>39.3</ele>
        <time>2015-10-12T08:38:29Z</time>
      </trkpt>
      <trkpt lat="46.22923" lon="-0.80188">
        <ele>39.2</ele>
        <time>2015-10-12T08:38:30Z</time>
      </trkpt>
      <trkpt lat="46.22918" lon="-0.80193">
        <ele>39</ele>
        <time>2015-10-12T08:38:35Z</time>
      </trkpt>
      <trkpt lat="46.22916" lon="-0.80193">
        <ele>39</ele>
        <time>2015-10-12T08:38:36Z</time>
      </trkpt>
      <trkpt lat="46.22911" lon="-0.80196">
        <ele>38.8</ele>
        <time>2015-10-12T08:38:40Z</time>
      </trkpt>
      <trkpt lat="46.22894" lon="-0.80205">
        <ele>38.2</ele>
        <time>2015-10-12T08:38:54Z</time>
      </trkpt>
      <trkpt lat="46.22892" lon="-0.80205">
        <ele>38.1</ele>
        <time>2015-10-12T08:38:55Z</time>
      </trkpt>
      <trkpt lat="46.22877" lon="-0.8022">
        <ele>37.6</ele>
        <time>2015-10-12T08:39:08Z</time>
      </trkpt>
      <trkpt lat="46.22861" lon="-0.80233">
        <ele>37</ele>
        <time>2015-10-12T08:39:20Z</time>
      </trkpt>
      <trkpt lat="46.22845" lon="-0.80248">
        <ele>37</ele>
        <time>2015-10-12T08:39:33Z</time>
      </trkpt>
      <trkpt lat="46.2284" lon="-0.80253">
        <ele>36.9</ele>
        <time>2015-10-12T08:39:39Z</time>
      </trkpt>
      <trkpt lat="46.22832" lon="-0.80263">
        <ele>36.5</ele>
        <time>2015-10-12T08:39:47Z</time>
      </trkpt>
      <trkpt lat="46.22827" lon="-0.80269">
        <ele>36.3</ele>
        <time>2015-10-12T08:39:52Z</time>
      </trkpt>
      <trkpt lat="46.22812" lon="-0.80282">
        <ele>35.9</ele>
        <time>2015-10-12T08:40:04Z</time>
      </trkpt>
      <trkpt lat="46.22807" lon="-0.80286">
        <ele>35.7</ele>
        <time>2015-10-12T08:40:08Z</time>
      </trkpt>
      <trkpt lat="46.22791" lon="-0.80301">
        <ele>35.1</ele>
        <time>2015-10-12T08:40:22Z</time>
      </trkpt>
      <trkpt lat="46.2278" lon="-0.8031">
        <ele>34.9</ele>
        <time>2015-10-12T08:40:32Z</time>
      </trkpt>
      <trkpt lat="46.22766" lon="-0.80326">
        <ele>34.2</ele>
        <time>2015-10-12T08:40:47Z</time>
      </trkpt>
      <trkpt lat="46.22751" lon="-0.80343">
        <ele>34</ele>
        <time>2015-10-12T08:41:03Z</time>
      </trkpt>
      <trkpt lat="46.22734" lon="-0.80355">
        <ele>33.5</ele>
        <time>2015-10-12T08:41:16Z</time>
      </trkpt>
      <trkpt lat="46.22717" lon="-0.80367">
        <ele>33</ele>
        <time>2015-10-12T08:41:29Z</time>
      </trkpt>
      <trkpt lat="46.227" lon="-0.80377">
        <ele>32.6</ele>
        <time>2015-10-12T08:41:42Z</time>
      </trkpt>
      <trkpt lat="46.22696" lon="-0.80379">
        <ele>32.4</ele>
        <time>2015-10-12T08:41:45Z</time>
      </trkpt>
      <trkpt lat="46.22681" lon="-0.80395">
        <ele>32</ele>
        <time>2015-10-12T08:41:58Z</time>
      </trkpt>
      <trkpt lat="46.22668" lon="-0.80413">
        <ele>32</ele>
        <time>2015-10-12T08:42:12Z</time>
      </trkpt>
      <trkpt lat="46.22652" lon="-0.80427">
        <ele>31.6</ele>
        <time>2015-10-12T08:42:25Z</time>
      </trkpt>
      <trkpt lat="46.22635" lon="-0.80436">
        <ele>31.4</ele>
        <time>2015-10-12T08:42:39Z</time>
      </trkpt>
      <trkpt lat="46.22617" lon="-0.80443">
        <ele>31.8</ele>
        <time>2015-10-12T08:42:53Z</time>
      </trkpt>
      <trkpt lat="46.22599" lon="-0.80453">
        <ele>31.8</ele>
        <time>2015-10-12T08:43:09Z</time>
      </trkpt>
      <trkpt lat="46.22583" lon="-0.80462">
        <ele>32</ele>
        <time>2015-10-12T08:43:39Z</time>
      </trkpt>
      <trkpt lat="46.22565" lon="-0.8047">
        <ele>32.7</ele>
        <time>2015-10-12T08:43:54Z</time>
      </trkpt>
      <trkpt lat="46.22548" lon="-0.80481">
        <ele>32.8</ele>
        <time>2015-10-12T08:44:08Z</time>
      </trkpt>
      <trkpt lat="46.22529" lon="-0.80487">
        <ele>33</ele>
        <time>2015-10-12T08:44:21Z</time>
      </trkpt>
      <trkpt lat="46.22517" lon="-0.80495">
        <ele>33</ele>
        <time>2015-10-12T08:44:32Z</time>
      </trkpt>
      <trkpt lat="46.22498" lon="-0.80501">
        <ele>33</ele>
        <time>2015-10-12T08:44:47Z</time>
      </trkpt>
      <trkpt lat="46.22479" lon="-0.805">
        <ele>33</ele>
        <time>2015-10-12T08:45:02Z</time>
      </trkpt>
      <trkpt lat="46.22473" lon="-0.805">
        <ele>33</ele>
        <time>2015-10-12T08:45:07Z</time>
      </trkpt>
      <trkpt lat="46.22465" lon="-0.80501">
        <ele>32.7</ele>
        <time>2015-10-12T08:45:13Z</time>
      </trkpt>
      <trkpt lat="46.22446" lon="-0.80501">
        <ele>32</ele>
        <time>2015-10-12T08:45:26Z</time>
      </trkpt>
      <trkpt lat="46.22439" lon="-0.80501">
        <ele>32</ele>
        <time>2015-10-12T08:45:31Z</time>
      </trkpt>
      <trkpt lat="46.22432" lon="-0.80501">
        <ele>32</ele>
        <time>2015-10-12T08:45:35Z</time>
      </trkpt>
      <trkpt lat="46.22414" lon="-0.805">
        <ele>32.1</ele>
        <time>2015-10-12T08:45:48Z</time>
      </trkpt>
      <trkpt lat="46.22395" lon="-0.80503">
        <ele>32.7</ele>
        <time>2015-10-12T08:46:03Z</time>
      </trkpt>
      <trkpt lat="46.22377" lon="-0.80503">
        <ele>33.4</ele>
        <time>2015-10-12T08:46:19Z</time>
      </trkpt>
      <trkpt lat="46.22358" lon="-0.80501">
        <ele>34.2</ele>
        <time>2015-10-12T08:46:36Z</time>
      </trkpt>
      <trkpt lat="46.22349" lon="-0.80501">
        <ele>34.8</ele>
        <time>2015-10-12T08:46:44Z</time>
      </trkpt>
      <trkpt lat="46.22333" lon="-0.80498">
        <ele>36</ele>
        <time>2015-10-12T08:46:57Z</time>
      </trkpt>
      <trkpt lat="46.22332" lon="-0.80498">
        <ele>36</ele>
        <time>2015-10-12T08:46:58Z</time>
      </trkpt>
      <trkpt lat="46.22328" lon="-0.80499">
        <ele>36</ele>
        <time>2015-10-12T08:47:02Z</time>
      </trkpt>
      <trkpt lat="46.22309" lon="-0.80498">
        <ele>36.1</ele>
        <time>2015-10-12T08:47:16Z</time>
      </trkpt>
      <trkpt lat="46.2229" lon="-0.80499">
        <ele>36.6</ele>
        <time>2015-10-12T08:47:33Z</time>
      </trkpt>
      <trkpt lat="46.22283" lon="-0.80499">
        <ele>36.8</ele>
        <time>2015-10-12T08:47:37Z</time>
      </trkpt>
      <trkpt lat="46.22265" lon="-0.80505">
        <ele>37</ele>
        <time>2015-10-12T08:47:48Z</time>
      </trkpt>
      <trkpt lat="46.22254" lon="-0.80504">
        <ele>37</ele>
        <time>2015-10-12T08:47:56Z</time>
      </trkpt>
      <trkpt lat="46.22249" lon="-0.80504">
        <ele>37</ele>
        <time>2015-10-12T08:48:00Z</time>
      </trkpt>
      <trkpt lat="46.2223" lon="-0.80506">
        <ele>37</ele>
        <time>2015-10-12T08:48:14Z</time>
      </trkpt>
      <trkpt lat="46.22227" lon="-0.80508">
        <ele>37</ele>
        <time>2015-10-12T08:48:18Z</time>
      </trkpt>
      <trkpt lat="46.22225" lon="-0.80508">
        <ele>37</ele>
        <time>2015-10-12T08:48:20Z</time>
      </trkpt>
      <trkpt lat="46.22208" lon="-0.80516">
        <ele>36.5</ele>
        <time>2015-10-12T08:48:32Z</time>
      </trkpt>
      <trkpt lat="46.2219" lon="-0.80523">
        <ele>36</ele>
        <time>2015-10-12T08:48:43Z</time>
      </trkpt>
      <trkpt lat="46.22173" lon="-0.80532">
        <ele>36</ele>
        <time>2015-10-12T08:48:57Z</time>
      </trkpt>
      <trkpt lat="46.22168" lon="-0.80534">
        <ele>36</ele>
        <time>2015-10-12T08:49:01Z</time>
      </trkpt>
      <trkpt lat="46.22149" lon="-0.80537">
        <ele>35.4</ele>
        <time>2015-10-12T08:49:16Z</time>
      </trkpt>
      <trkpt lat="46.22145" lon="-0.80538">
        <ele>35.2</ele>
        <time>2015-10-12T08:49:19Z</time>
      </trkpt>
      <trkpt lat="46.22139" lon="-0.80539">
        <ele>35</ele>
        <time>2015-10-12T08:49:28Z</time>
      </trkpt>
      <trkpt lat="46.22143" lon="-0.80543">
        <ele>35.2</ele>
        <time>2015-10-12T08:49:37Z</time>
      </trkpt>
      <trkpt lat="46.22132" lon="-0.80532">
        <ele>34.8</ele>
        <time>2015-10-12T08:50:32Z</time>
      </trkpt>
      <trkpt lat="46.22124" lon="-0.8054">
        <ele>34.5</ele>
        <time>2015-10-12T08:51:07Z</time>
      </trkpt>
      <trkpt lat="46.22116" lon="-0.80541">
        <ele>34.2</ele>
        <time>2015-10-12T08:51:27Z</time>
      </trkpt>
      <trkpt lat="46.22123" lon="-0.80535">
        <ele>34.4</ele>
        <time>2015-10-12T08:51:59Z</time>
      </trkpt>
      <trkpt lat="46.22124" lon="-0.80536">
        <ele>34.5</ele>
        <time>2015-10-12T08:52:05Z</time>
      </trkpt>
      <trkpt lat="46.22123" lon="-0.8054">
        <ele>34.4</ele>
        <time>2015-10-12T08:52:13Z</time>
      </trkpt>
      <trkpt lat="46.22118" lon="-0.80539">
        <ele>34.2</ele>
        <time>2015-10-12T08:52:45Z</time>
      </trkpt>
      <trkpt lat="46.22113" lon="-0.80539">
        <ele>34.1</ele>
        <time>2015-10-12T08:54:03Z</time>
      </trkpt>
      <trkpt lat="46.22111" lon="-0.80541">
        <ele>34</ele>
        <time>2015-10-12T08:55:33Z</time>
      </trkpt>
      <trkpt lat="46.22109" lon="-0.80545">
        <ele>34</ele>
        <time>2015-10-12T08:55:38Z</time>
      </trkpt>
      <trkpt lat="46.22111" lon="-0.80569">
        <ele>34</ele>
        <time>2015-10-12T08:56:09Z</time>
      </trkpt>
      <trkpt lat="46.22112" lon="-0.80593">
        <ele>33.7</ele>
        <time>2015-10-12T08:56:41Z</time>
      </trkpt>
      <trkpt lat="46.22116" lon="-0.80619">
        <ele>33.4</ele>
        <time>2015-10-12T08:56:56Z</time>
      </trkpt>
      <trkpt lat="46.22119" lon="-0.80647">
        <ele>33.3</ele>
        <time>2015-10-12T08:57:09Z</time>
      </trkpt>
      <trkpt lat="46.22123" lon="-0.80674">
        <ele>32.9</ele>
        <time>2015-10-12T08:57:22Z</time>
      </trkpt>
      <trkpt lat="46.22127" lon="-0.80699">
        <ele>33.1</ele>
        <time>2015-10-12T08:57:35Z</time>
      </trkpt>
      <trkpt lat="46.2213" lon="-0.80726">
        <ele>32.7</ele>
        <time>2015-10-12T08:57:48Z</time>
      </trkpt>
      <trkpt lat="46.22132" lon="-0.80753">
        <ele>32.7</ele>
        <time>2015-10-12T08:58:01Z</time>
      </trkpt>
      <trkpt lat="46.22136" lon="-0.80779">
        <ele>32.9</ele>
        <time>2015-10-12T08:58:14Z</time>
      </trkpt>
      <trkpt lat="46.22139" lon="-0.80805">
        <ele>32</ele>
        <time>2015-10-12T08:58:28Z</time>
      </trkpt>
      <trkpt lat="46.22141" lon="-0.80834">
        <ele>32.1</ele>
        <time>2015-10-12T08:58:41Z</time>
      </trkpt>
      <trkpt lat="46.22152" lon="-0.80854">
        <ele>32.1</ele>
        <time>2015-10-12T08:58:53Z</time>
      </trkpt>
      <trkpt lat="46.22169" lon="-0.80866">
        <ele>32.1</ele>
        <time>2015-10-12T08:59:05Z</time>
      </trkpt>
      <trkpt lat="46.22187" lon="-0.80874">
        <ele>32.4</ele>
        <time>2015-10-12T08:59:17Z</time>
      </trkpt>
      <trkpt lat="46.22205" lon="-0.80879">
        <ele>32.4</ele>
        <time>2015-10-12T08:59:28Z</time>
      </trkpt>
      <trkpt lat="46.22223" lon="-0.80887">
        <ele>32.1</ele>
        <time>2015-10-12T08:59:41Z</time>
      </trkpt>
      <trkpt lat="46.2224" lon="-0.80898">
        <ele>30.8</ele>
        <time>2015-10-12T08:59:57Z</time>
      </trkpt>
      <trkpt lat="46.22258" lon="-0.809">
        <ele>30.9</ele>
        <time>2015-10-12T09:00:11Z</time>
      </trkpt>
      <trkpt lat="46.22276" lon="-0.80903">
        <ele>31</ele>
        <time>2015-10-12T09:00:23Z</time>
      </trkpt>
      <trkpt lat="46.22295" lon="-0.80906">
        <ele>31.2</ele>
        <time>2015-10-12T09:00:35Z</time>
      </trkpt>
      <trkpt lat="46.22313" lon="-0.80915">
        <ele>30.8</ele>
        <time>2015-10-12T09:00:48Z</time>
      </trkpt>
      <trkpt lat="46.22332" lon="-0.80922">
        <ele>29.7</ele>
        <time>2015-10-12T09:01:00Z</time>
      </trkpt>
      <trkpt lat="46.22349" lon="-0.8093">
        <ele>29</ele>
        <time>2015-10-12T09:01:12Z</time>
      </trkpt>
      <trkpt lat="46.22357" lon="-0.80938">
        <ele>28.9</ele>
        <time>2015-10-12T09:01:20Z</time>
      </trkpt>
      <trkpt lat="46.2235" lon="-0.80948">
        <ele>28.6</ele>
        <time>2015-10-12T09:01:33Z</time>
      </trkpt>
      <trkpt lat="46.22333" lon="-0.80943">
        <ele>28.1</ele>
        <time>2015-10-12T09:01:47Z</time>
      </trkpt>
      <trkpt lat="46.22315" lon="-0.80937">
        <ele>28.7</ele>
        <time>2015-10-12T09:02:00Z</time>
      </trkpt>
      <trkpt lat="46.22297" lon="-0.80931">
        <ele>29.6</ele>
        <time>2015-10-12T09:02:14Z</time>
      </trkpt>
      <trkpt lat="46.2228" lon="-0.80926">
        <ele>30</ele>
        <time>2015-10-12T09:02:28Z</time>
      </trkpt>
      <trkpt lat="46.22261" lon="-0.80923">
        <ele>29.1</ele>
        <time>2015-10-12T09:02:41Z</time>
      </trkpt>
      <trkpt lat="46.22243" lon="-0.80918">
        <ele>28.4</ele>
        <time>2015-10-12T09:02:54Z</time>
      </trkpt>
      <trkpt lat="46.22225" lon="-0.80914">
        <ele>27.6</ele>
        <time>2015-10-12T09:03:07Z</time>
      </trkpt>
      <trkpt lat="46.22206" lon="-0.80914">
        <ele>27</ele>
        <time>2015-10-12T09:03:21Z</time>
      </trkpt>
      <trkpt lat="46.22187" lon="-0.80913">
        <ele>26.8</ele>
        <time>2015-10-12T09:03:35Z</time>
      </trkpt>
      <trkpt lat="46.22168" lon="-0.80912">
        <ele>26.9</ele>
        <time>2015-10-12T09:03:49Z</time>
      </trkpt>
      <trkpt lat="46.22151" lon="-0.80915">
        <ele>26.9</ele>
        <time>2015-10-12T09:04:03Z</time>
      </trkpt>
      <trkpt lat="46.22133" lon="-0.80929">
        <ele>28.5</ele>
        <time>2015-10-12T09:04:16Z</time>
      </trkpt>
      <trkpt lat="46.22112" lon="-0.80909">
        <ele>28.3</ele>
        <time>2015-10-12T09:04:34Z</time>
      </trkpt>
      <trkpt lat="46.22108" lon="-0.8091">
        <ele>28.2</ele>
        <time>2015-10-12T09:04:36Z</time>
      </trkpt>
      <trkpt lat="46.22089" lon="-0.8091">
        <ele>28</ele>
        <time>2015-10-12T09:04:49Z</time>
      </trkpt>
      <trkpt lat="46.2207" lon="-0.80907">
        <ele>28.3</ele>
        <time>2015-10-12T09:05:04Z</time>
      </trkpt>
      <trkpt lat="46.22052" lon="-0.80904">
        <ele>28.3</ele>
        <time>2015-10-12T09:05:17Z</time>
      </trkpt>
      <trkpt lat="46.22034" lon="-0.80903">
        <ele>27.7</ele>
        <time>2015-10-12T09:05:30Z</time>
      </trkpt>
      <trkpt lat="46.2203" lon="-0.80899">
        <ele>27.7</ele>
        <time>2015-10-12T09:05:34Z</time>
      </trkpt>
      <trkpt lat="46.22029" lon="-0.80891">
        <ele>28</ele>
        <time>2015-10-12T09:05:38Z</time>
      </trkpt>
      <trkpt lat="46.22034" lon="-0.80871">
        <ele>29.4</ele>
        <time>2015-10-12T09:05:50Z</time>
      </trkpt>
      <trkpt lat="46.22034" lon="-0.80868">
        <ele>29.6</ele>
        <time>2015-10-12T09:05:52Z</time>
      </trkpt>
      <trkpt lat="46.22051" lon="-0.8086">
        <ele>30</ele>
        <time>2015-10-12T09:06:10Z</time>
      </trkpt>
      <trkpt lat="46.22054" lon="-0.8086">
        <ele>30</ele>
        <time>2015-10-12T09:06:18Z</time>
      </trkpt>
      <trkpt lat="46.22071" lon="-0.80856">
        <ele>30.6</ele>
        <time>2015-10-12T09:06:38Z</time>
      </trkpt>
      <trkpt lat="46.22084" lon="-0.80839">
        <ele>31</ele>
        <time>2015-10-12T09:06:50Z</time>
      </trkpt>
      <trkpt lat="46.22086" lon="-0.80831">
        <ele>31.2</ele>
        <time>2015-10-12T09:06:54Z</time>
      </trkpt>
      <trkpt lat="46.22087" lon="-0.80823">
        <ele>31.4</ele>
        <time>2015-10-12T09:06:58Z</time>
      </trkpt>
      <trkpt lat="46.22086" lon="-0.80821">
        <ele>31.5</ele>
        <time>2015-10-12T09:06:59Z</time>
      </trkpt>
      <trkpt lat="46.22083" lon="-0.80809">
        <ele>31.9</ele>
        <time>2015-10-12T09:07:08Z</time>
      </trkpt>
      <trkpt lat="46.22076" lon="-0.80801">
        <ele>31.8</ele>
        <time>2015-10-12T09:08:03Z</time>
      </trkpt>
      <trkpt lat="46.2207" lon="-0.80777">
        <ele>32</ele>
        <time>2015-10-12T09:08:18Z</time>
      </trkpt>
      <trkpt lat="46.22063" lon="-0.80752">
        <ele>32.2</ele>
        <time>2015-10-12T09:08:31Z</time>
      </trkpt>
      <trkpt lat="46.22059" lon="-0.80734">
        <ele>32.6</ele>
        <time>2015-10-12T09:08:40Z</time>
      </trkpt>
      <trkpt lat="46.22056" lon="-0.80707">
        <ele>32.5</ele>
        <time>2015-10-12T09:08:53Z</time>
      </trkpt>
      <trkpt lat="46.22056" lon="-0.80681">
        <ele>32</ele>
        <time>2015-10-12T09:09:08Z</time>
      </trkpt>
      <trkpt lat="46.22057" lon="-0.80676">
        <ele>32.1</ele>
        <time>2015-10-12T09:09:11Z</time>
      </trkpt>
      <trkpt lat="46.22057" lon="-0.80664">
        <ele>32.1</ele>
        <time>2015-10-12T09:09:18Z</time>
      </trkpt>
      <trkpt lat="46.22058" lon="-0.80654">
        <ele>32.5</ele>
        <time>2015-10-12T09:09:25Z</time>
      </trkpt>
      <trkpt lat="46.22058" lon="-0.8065">
        <ele>32.6</ele>
        <time>2015-10-12T09:09:29Z</time>
      </trkpt>
      <trkpt lat="46.22041" lon="-0.80642">
        <ele>32.4</ele>
        <time>2015-10-12T09:09:44Z</time>
      </trkpt>
      <trkpt lat="46.22023" lon="-0.80648">
        <ele>31.8</ele>
        <time>2015-10-12T09:10:00Z</time>
      </trkpt>
      <trkpt lat="46.22006" lon="-0.8066">
        <ele>31.2</ele>
        <time>2015-10-12T09:10:13Z</time>
      </trkpt>
      <trkpt lat="46.21989" lon="-0.8067">
        <ele>31</ele>
        <time>2015-10-12T09:10:28Z</time>
      </trkpt>
      <trkpt lat="46.2197" lon="-0.80676">
        <ele>30.9</ele>
        <time>2015-10-12T09:10:43Z</time>
      </trkpt>
      <trkpt lat="46.21954" lon="-0.80667">
        <ele>30.4</ele>
        <time>2015-10-12T09:10:56Z</time>
      </trkpt>
      <trkpt lat="46.21944" lon="-0.80644">
        <ele>30</ele>
        <time>2015-10-12T09:11:12Z</time>
      </trkpt>
      <trkpt lat="46.21938" lon="-0.80621">
        <ele>30</ele>
        <time>2015-10-12T09:11:25Z</time>
      </trkpt>
      <trkpt lat="46.21934" lon="-0.80611">
        <ele>30</ele>
        <time>2015-10-12T09:11:32Z</time>
      </trkpt>
      <trkpt lat="46.21927" lon="-0.80596">
        <ele>30</ele>
        <time>2015-10-12T09:11:44Z</time>
      </trkpt>
      <trkpt lat="46.21921" lon="-0.80576">
        <ele>30</ele>
        <time>2015-10-12T09:12:37Z</time>
      </trkpt>
      <trkpt lat="46.21915" lon="-0.80573">
        <ele>30</ele>
        <time>2015-10-12T09:13:53Z</time>
      </trkpt>
      <trkpt lat="46.21902" lon="-0.80555">
        <ele>30</ele>
        <time>2015-10-12T09:14:14Z</time>
      </trkpt>
      <trkpt lat="46.21897" lon="-0.80529">
        <ele>30.9</ele>
        <time>2015-10-12T09:14:34Z</time>
      </trkpt>
      <trkpt lat="46.21893" lon="-0.80505">
        <ele>31</ele>
        <time>2015-10-12T09:14:57Z</time>
      </trkpt>
      <trkpt lat="46.21876" lon="-0.80496">
        <ele>31</ele>
        <time>2015-10-12T09:15:15Z</time>
      </trkpt>
      <trkpt lat="46.21868" lon="-0.80472">
        <ele>31</ele>
        <time>2015-10-12T09:15:30Z</time>
      </trkpt>
      <trkpt lat="46.21862" lon="-0.80447">
        <ele>31</ele>
        <time>2015-10-12T09:15:45Z</time>
      </trkpt>
      <trkpt lat="46.21852" lon="-0.80425">
        <ele>31</ele>
        <time>2015-10-12T09:16:03Z</time>
      </trkpt>
      <trkpt lat="46.21843" lon="-0.80401">
        <ele>31</ele>
        <time>2015-10-12T09:16:22Z</time>
      </trkpt>
      <trkpt lat="46.21838" lon="-0.80377">
        <ele>31</ele>
        <time>2015-10-12T09:16:38Z</time>
      </trkpt>
      <trkpt lat="46.21825" lon="-0.80358">
        <ele>31</ele>
        <time>2015-10-12T09:16:54Z</time>
      </trkpt>
      <trkpt lat="46.21807" lon="-0.80356">
        <ele>31</ele>
        <time>2015-10-12T09:17:09Z</time>
      </trkpt>
      <trkpt lat="46.21789" lon="-0.8036">
        <ele>30.4</ele>
        <time>2015-10-12T09:17:25Z</time>
      </trkpt>
      <trkpt lat="46.21775" lon="-0.80377">
        <ele>30</ele>
        <time>2015-10-12T09:17:41Z</time>
      </trkpt>
      <trkpt lat="46.21757" lon="-0.8038">
        <ele>30</ele>
        <time>2015-10-12T09:18:02Z</time>
      </trkpt>
      <trkpt lat="46.21738" lon="-0.80385">
        <ele>30</ele>
        <time>2015-10-12T09:18:20Z</time>
      </trkpt>
      <trkpt lat="46.21721" lon="-0.80394">
        <ele>29.8</ele>
        <time>2015-10-12T09:18:34Z</time>
      </trkpt>
      <trkpt lat="46.21709" lon="-0.80383">
        <ele>29.5</ele>
        <time>2015-10-12T09:18:51Z</time>
      </trkpt>
      <trkpt lat="46.21706" lon="-0.80357">
        <ele>29.4</ele>
        <time>2015-10-12T09:19:13Z</time>
      </trkpt>
      <trkpt lat="46.21706" lon="-0.80331">
        <ele>29.5</ele>
        <time>2015-10-12T09:19:28Z</time>
      </trkpt>
      <trkpt lat="46.21703" lon="-0.80304">
        <ele>30</ele>
        <time>2015-10-12T09:19:41Z</time>
      </trkpt>
      <trkpt lat="46.21699" lon="-0.80286">
        <ele>30</ele>
        <time>2015-10-12T09:19:50Z</time>
      </trkpt>
      <trkpt lat="46.21698" lon="-0.8027">
        <ele>30</ele>
        <time>2015-10-12T09:20:02Z</time>
      </trkpt>
      <trkpt lat="46.21697" lon="-0.80263">
        <ele>30</ele>
        <time>2015-10-12T09:20:09Z</time>
      </trkpt>
      <trkpt lat="46.21695" lon="-0.80244">
        <ele>30</ele>
        <time>2015-10-12T09:20:20Z</time>
      </trkpt>
      <trkpt lat="46.21691" lon="-0.80233">
        <ele>29.9</ele>
        <time>2015-10-12T09:20:27Z</time>
      </trkpt>
      <trkpt lat="46.21676" lon="-0.80233">
        <ele>29.3</ele>
        <time>2015-10-12T09:20:39Z</time>
      </trkpt>
      <trkpt lat="46.21671" lon="-0.80235">
        <ele>29.2</ele>
        <time>2015-10-12T09:20:43Z</time>
      </trkpt>
      <trkpt lat="46.21653" lon="-0.80241">
        <ele>28.7</ele>
        <time>2015-10-12T09:20:59Z</time>
      </trkpt>
      <trkpt lat="46.21648" lon="-0.80243">
        <ele>28.5</ele>
        <time>2015-10-12T09:21:04Z</time>
      </trkpt>
      <trkpt lat="46.2164" lon="-0.80244">
        <ele>28.3</ele>
        <time>2015-10-12T09:21:11Z</time>
      </trkpt>
      <trkpt lat="46.21621" lon="-0.80245">
        <ele>28.1</ele>
        <time>2015-10-12T09:21:27Z</time>
      </trkpt>
      <trkpt lat="46.21603" lon="-0.80253">
        <ele>27.7</ele>
        <time>2015-10-12T09:21:38Z</time>
      </trkpt>
      <trkpt lat="46.21599" lon="-0.80257">
        <ele>27.6</ele>
        <time>2015-10-12T09:21:42Z</time>
      </trkpt>
      <trkpt lat="46.21593" lon="-0.80257">
        <ele>27.4</ele>
        <time>2015-10-12T09:21:50Z</time>
      </trkpt>
      <trkpt lat="46.21575" lon="-0.80259">
        <ele>26.9</ele>
        <time>2015-10-12T09:22:05Z</time>
      </trkpt>
      <trkpt lat="46.21569" lon="-0.80259">
        <ele>26.8</ele>
        <time>2015-10-12T09:22:10Z</time>
      </trkpt>
      <trkpt lat="46.21562" lon="-0.80258">
        <ele>26.8</ele>
        <time>2015-10-12T09:22:16Z</time>
      </trkpt>
      <trkpt lat="46.21556" lon="-0.80255">
        <ele>26.8</ele>
        <time>2015-10-12T09:22:24Z</time>
      </trkpt>
      <trkpt lat="46.21545" lon="-0.80258">
        <ele>26.4</ele>
        <time>2015-10-12T09:22:34Z</time>
      </trkpt>
      <trkpt lat="46.21527" lon="-0.80261">
        <ele>26</ele>
        <time>2015-10-12T09:22:50Z</time>
      </trkpt>
      <trkpt lat="46.21517" lon="-0.80265">
        <ele>25.6</ele>
        <time>2015-10-12T09:22:59Z</time>
      </trkpt>
      <trkpt lat="46.21509" lon="-0.8027">
        <ele>25.3</ele>
        <time>2015-10-12T09:23:05Z</time>
      </trkpt>
      <trkpt lat="46.21504" lon="-0.8027">
        <ele>25.2</ele>
        <time>2015-10-12T09:23:09Z</time>
      </trkpt>
      <trkpt lat="46.21492" lon="-0.80276">
        <ele>25</ele>
        <time>2015-10-12T09:23:19Z</time>
      </trkpt>
      <trkpt lat="46.21475" lon="-0.80285">
        <ele>24.8</ele>
        <time>2015-10-12T09:23:33Z</time>
      </trkpt>
      <trkpt lat="46.21457" lon="-0.80285">
        <ele>24.3</ele>
        <time>2015-10-12T09:23:44Z</time>
      </trkpt>
      <trkpt lat="46.21443" lon="-0.80292">
        <ele>23.9</ele>
        <time>2015-10-12T09:23:57Z</time>
      </trkpt>
      <trkpt lat="46.21439" lon="-0.80294">
        <ele>23.8</ele>
        <time>2015-10-12T09:24:02Z</time>
      </trkpt>
      <trkpt lat="46.2142" lon="-0.80294">
        <ele>23.1</ele>
        <time>2015-10-12T09:24:17Z</time>
      </trkpt>
      <trkpt lat="46.21419" lon="-0.80294">
        <ele>23.1</ele>
        <time>2015-10-12T09:24:18Z</time>
      </trkpt>
      <trkpt lat="46.21412" lon="-0.80293">
        <ele>22.9</ele>
        <time>2015-10-12T09:24:25Z</time>
      </trkpt>
      <trkpt lat="46.21411" lon="-0.80294">
        <ele>22.9</ele>
        <time>2015-10-12T09:24:27Z</time>
      </trkpt>
      <trkpt lat="46.21404" lon="-0.80301">
        <ele>22.6</ele>
        <time>2015-10-12T09:24:31Z</time>
      </trkpt>
      <trkpt lat="46.21393" lon="-0.80323">
        <ele>22.2</ele>
        <time>2015-10-12T09:24:45Z</time>
      </trkpt>
      <trkpt lat="46.21386" lon="-0.80348">
        <ele>22</ele>
        <time>2015-10-12T09:24:59Z</time>
      </trkpt>
      <trkpt lat="46.21383" lon="-0.80373">
        <ele>22</ele>
        <time>2015-10-12T09:25:13Z</time>
      </trkpt>
      <trkpt lat="46.2139" lon="-0.80385">
        <ele>22</ele>
        <time>2015-10-12T09:25:23Z</time>
      </trkpt>
      <trkpt lat="46.21393" lon="-0.80394">
        <ele>22.1</ele>
        <time>2015-10-12T09:26:51Z</time>
      </trkpt>
      <trkpt lat="46.21382" lon="-0.80405">
        <ele>21.8</ele>
        <time>2015-10-12T09:27:26Z</time>
      </trkpt>
      <trkpt lat="46.21364" lon="-0.80415">
        <ele>21.2</ele>
        <time>2015-10-12T09:27:45Z</time>
      </trkpt>
      <trkpt lat="46.21355" lon="-0.8042">
        <ele>21</ele>
        <time>2015-10-12T09:27:55Z</time>
      </trkpt>
      <trkpt lat="46.21344" lon="-0.80427">
        <ele>21</ele>
        <time>2015-10-12T09:28:08Z</time>
      </trkpt>
      <trkpt lat="46.21326" lon="-0.80437">
        <ele>21</ele>
        <time>2015-10-12T09:28:23Z</time>
      </trkpt>
      <trkpt lat="46.21308" lon="-0.80446">
        <ele>21</ele>
        <time>2015-10-12T09:28:36Z</time>
      </trkpt>
      <trkpt lat="46.21291" lon="-0.80456">
        <ele>21</ele>
        <time>2015-10-12T09:28:49Z</time>
      </trkpt>
      <trkpt lat="46.21274" lon="-0.80467">
        <ele>21.1</ele>
        <time>2015-10-12T09:29:02Z</time>
      </trkpt>
      <trkpt lat="46.21257" lon="-0.80477">
        <ele>21.8</ele>
        <time>2015-10-12T09:29:16Z</time>
      </trkpt>
      <trkpt lat="46.2125" lon="-0.80483">
        <ele>22</ele>
        <time>2015-10-12T09:29:22Z</time>
      </trkpt>
      <trkpt lat="46.21233" lon="-0.80492">
        <ele>22</ele>
        <time>2015-10-12T09:29:36Z</time>
      </trkpt>
      <trkpt lat="46.21215" lon="-0.80501">
        <ele>22</ele>
        <time>2015-10-12T09:29:49Z</time>
      </trkpt>
      <trkpt lat="46.21198" lon="-0.80511">
        <ele>22</ele>
        <time>2015-10-12T09:30:02Z</time>
      </trkpt>
      <trkpt lat="46.21179" lon="-0.8052">
        <ele>22</ele>
        <time>2015-10-12T09:30:15Z</time>
      </trkpt>
      <trkpt lat="46.21161" lon="-0.80527">
        <ele>22</ele>
        <time>2015-10-12T09:30:28Z</time>
      </trkpt>
      <trkpt lat="46.21143" lon="-0.80535">
        <ele>22</ele>
        <time>2015-10-12T09:30:41Z</time>
      </trkpt>
      <trkpt lat="46.21126" lon="-0.80544">
        <ele>22.5</ele>
        <time>2015-10-12T09:30:54Z</time>
      </trkpt>
      <trkpt lat="46.21109" lon="-0.80555">
        <ele>23</ele>
        <time>2015-10-12T09:31:07Z</time>
      </trkpt>
      <trkpt lat="46.21092" lon="-0.80567">
        <ele>22.9</ele>
        <time>2015-10-12T09:31:21Z</time>
      </trkpt>
      <trkpt lat="46.21076" lon="-0.8058">
        <ele>23.3</ele>
        <time>2015-10-12T09:31:34Z</time>
      </trkpt>
      <trkpt lat="46.2106" lon="-0.80592">
        <ele>23.6</ele>
        <time>2015-10-12T09:31:47Z</time>
      </trkpt>
      <trkpt lat="46.21054" lon="-0.80596">
        <ele>23.6</ele>
        <time>2015-10-12T09:31:52Z</time>
      </trkpt>
      <trkpt lat="46.21037" lon="-0.80606">
        <ele>23.7</ele>
        <time>2015-10-12T09:32:06Z</time>
      </trkpt>
      <trkpt lat="46.21019" lon="-0.80616">
        <ele>23.9</ele>
        <time>2015-10-12T09:32:20Z</time>
      </trkpt>
      <trkpt lat="46.21014" lon="-0.80619">
        <ele>23.9</ele>
        <time>2015-10-12T09:32:24Z</time>
      </trkpt>
      <trkpt lat="46.20996" lon="-0.80629">
        <ele>24</ele>
        <time>2015-10-12T09:32:38Z</time>
      </trkpt>
      <trkpt lat="46.2098" lon="-0.8064">
        <ele>24</ele>
        <time>2015-10-12T09:32:51Z</time>
      </trkpt>
      <trkpt lat="46.20964" lon="-0.80652">
        <ele>24</ele>
        <time>2015-10-12T09:33:04Z</time>
      </trkpt>
      <trkpt lat="46.20947" lon="-0.80664">
        <ele>24</ele>
        <time>2015-10-12T09:33:18Z</time>
      </trkpt>
      <trkpt lat="46.2093" lon="-0.80677">
        <ele>24.5</ele>
        <time>2015-10-12T09:33:32Z</time>
      </trkpt>
      <trkpt lat="46.20913" lon="-0.8069">
        <ele>25</ele>
        <time>2015-10-12T09:33:46Z</time>
      </trkpt>
      <trkpt lat="46.20897" lon="-0.80702">
        <ele>24.9</ele>
        <time>2015-10-12T09:34:00Z</time>
      </trkpt>
      <trkpt lat="46.2088" lon="-0.80714">
        <ele>25.3</ele>
        <time>2015-10-12T09:34:14Z</time>
      </trkpt>
      <trkpt lat="46.20863" lon="-0.80727">
        <ele>25.8</ele>
        <time>2015-10-12T09:34:28Z</time>
      </trkpt>
      <trkpt lat="46.20848" lon="-0.80742">
        <ele>25.6</ele>
        <time>2015-10-12T09:34:42Z</time>
      </trkpt>
      <trkpt lat="46.20847" lon="-0.80742">
        <ele>25.6</ele>
        <time>2015-10-12T09:34:43Z</time>
      </trkpt>
      <trkpt lat="46.20831" lon="-0.80754">
        <ele>26</ele>
        <time>2015-10-12T09:34:58Z</time>
      </trkpt>
      <trkpt lat="46.20813" lon="-0.80766">
        <ele>26</ele>
        <time>2015-10-12T09:35:13Z</time>
      </trkpt>
      <trkpt lat="46.20796" lon="-0.80776">
        <ele>26</ele>
        <time>2015-10-12T09:35:27Z</time>
      </trkpt>
      <trkpt lat="46.20779" lon="-0.80788">
        <ele>25.7</ele>
        <time>2015-10-12T09:35:41Z</time>
      </trkpt>
      <trkpt lat="46.20766" lon="-0.80796">
        <ele>25.2</ele>
        <time>2015-10-12T09:35:52Z</time>
      </trkpt>
      <trkpt lat="46.20748" lon="-0.80805">
        <ele>25</ele>
        <time>2015-10-12T09:36:06Z</time>
      </trkpt>
      <trkpt lat="46.20733" lon="-0.80814">
        <ele>25</ele>
        <time>2015-10-12T09:36:19Z</time>
      </trkpt>
      <trkpt lat="46.20717" lon="-0.80826">
        <ele>25</ele>
        <time>2015-10-12T09:36:36Z</time>
      </trkpt>
      <trkpt lat="46.20699" lon="-0.80835">
        <ele>25</ele>
        <time>2015-10-12T09:36:52Z</time>
      </trkpt>
      <trkpt lat="46.2068" lon="-0.80839">
        <ele>25</ele>
        <time>2015-10-12T09:37:06Z</time>
      </trkpt>
      <trkpt lat="46.20676" lon="-0.8084">
        <ele>25</ele>
        <time>2015-10-12T09:37:09Z</time>
      </trkpt>
      <trkpt lat="46.2066" lon="-0.80846">
        <ele>25</ele>
        <time>2015-10-12T09:37:22Z</time>
      </trkpt>
      <trkpt lat="46.20651" lon="-0.80849">
        <ele>25</ele>
        <time>2015-10-12T09:37:30Z</time>
      </trkpt>
      <trkpt lat="46.20632" lon="-0.80852">
        <ele>25</ele>
        <time>2015-10-12T09:37:44Z</time>
      </trkpt>
      <trkpt lat="46.20614" lon="-0.80858">
        <ele>25</ele>
        <time>2015-10-12T09:37:58Z</time>
      </trkpt>
      <trkpt lat="46.20596" lon="-0.80861">
        <ele>25</ele>
        <time>2015-10-12T09:38:11Z</time>
      </trkpt>
      <trkpt lat="46.20584" lon="-0.80878">
        <ele>25</ele>
        <time>2015-10-12T09:38:25Z</time>
      </trkpt>
      <trkpt lat="46.20581" lon="-0.80905">
        <ele>25</ele>
        <time>2015-10-12T09:38:39Z</time>
      </trkpt>
      <trkpt lat="46.20579" lon="-0.80918">
        <ele>25</ele>
        <time>2015-10-12T09:38:47Z</time>
      </trkpt>
      <trkpt lat="46.20577" lon="-0.80935">
        <ele>25</ele>
        <time>2015-10-12T09:38:56Z</time>
      </trkpt>
      <trkpt lat="46.20576" lon="-0.80944">
        <ele>25</ele>
        <time>2015-10-12T09:39:01Z</time>
      </trkpt>
      <trkpt lat="46.20572" lon="-0.8097">
        <ele>25</ele>
        <time>2015-10-12T09:39:15Z</time>
      </trkpt>
      <trkpt lat="46.20568" lon="-0.80995">
        <ele>25</ele>
        <time>2015-10-12T09:39:28Z</time>
      </trkpt>
      <trkpt lat="46.20564" lon="-0.81021">
        <ele>25</ele>
        <time>2015-10-12T09:39:42Z</time>
      </trkpt>
      <trkpt lat="46.20561" lon="-0.81048">
        <ele>24.4</ele>
        <time>2015-10-12T09:39:57Z</time>
      </trkpt>
      <trkpt lat="46.20556" lon="-0.81075">
        <ele>24</ele>
        <time>2015-10-12T09:40:11Z</time>
      </trkpt>
      <trkpt lat="46.20553" lon="-0.81101">
        <ele>23.9</ele>
        <time>2015-10-12T09:40:25Z</time>
      </trkpt>
      <trkpt lat="46.2055" lon="-0.81121">
        <ele>23.8</ele>
        <time>2015-10-12T09:40:36Z</time>
      </trkpt>
      <trkpt lat="46.20546" lon="-0.81149">
        <ele>23.7</ele>
        <time>2015-10-12T09:40:51Z</time>
      </trkpt>
      <trkpt lat="46.20546" lon="-0.81153">
        <ele>23.6</ele>
        <time>2015-10-12T09:40:53Z</time>
      </trkpt>
      <trkpt lat="46.20541" lon="-0.81179">
        <ele>23.3</ele>
        <time>2015-10-12T09:41:07Z</time>
      </trkpt>
      <trkpt lat="46.2054" lon="-0.81189">
        <ele>23.1</ele>
        <time>2015-10-12T09:41:13Z</time>
      </trkpt>
      <trkpt lat="46.20539" lon="-0.81201">
        <ele>23</ele>
        <time>2015-10-12T09:41:20Z</time>
      </trkpt>
      <trkpt lat="46.20537" lon="-0.81209">
        <ele>23</ele>
        <time>2015-10-12T09:41:25Z</time>
      </trkpt>
      <trkpt lat="46.20535" lon="-0.81235">
        <ele>22.7</ele>
        <time>2015-10-12T09:41:39Z</time>
      </trkpt>
      <trkpt lat="46.20536" lon="-0.81262">
        <ele>22.3</ele>
        <time>2015-10-12T09:41:52Z</time>
      </trkpt>
      <trkpt lat="46.20539" lon="-0.81288">
        <ele>22.4</ele>
        <time>2015-10-12T09:42:06Z</time>
      </trkpt>
      <trkpt lat="46.20541" lon="-0.81315">
        <ele>22.3</ele>
        <time>2015-10-12T09:42:21Z</time>
      </trkpt>
      <trkpt lat="46.20543" lon="-0.81338">
        <ele>21.9</ele>
        <time>2015-10-12T09:42:34Z</time>
      </trkpt>
      <trkpt lat="46.20544" lon="-0.81347">
        <ele>21.8</ele>
        <time>2015-10-12T09:42:39Z</time>
      </trkpt>
      <trkpt lat="46.20545" lon="-0.81373">
        <ele>21.4</ele>
        <time>2015-10-12T09:42:54Z</time>
      </trkpt>
      <trkpt lat="46.20546" lon="-0.81375">
        <ele>21.3</ele>
        <time>2015-10-12T09:42:55Z</time>
      </trkpt>
      <trkpt lat="46.20549" lon="-0.81401">
        <ele>21</ele>
        <time>2015-10-12T09:43:09Z</time>
      </trkpt>
      <trkpt lat="46.20549" lon="-0.81412">
        <ele>21</ele>
        <time>2015-10-12T09:43:15Z</time>
      </trkpt>
      <trkpt lat="46.20545" lon="-0.81419">
        <ele>21</ele>
        <time>2015-10-12T09:43:20Z</time>
      </trkpt>
      <trkpt lat="46.20543" lon="-0.81421">
        <ele>21</ele>
        <time>2015-10-12T09:43:22Z</time>
      </trkpt>
      <trkpt lat="46.20534" lon="-0.81424">
        <ele>21</ele>
        <time>2015-10-12T09:43:33Z</time>
      </trkpt>
      <trkpt lat="46.20528" lon="-0.8144">
        <ele>21</ele>
        <time>2015-10-12T09:44:19Z</time>
      </trkpt>
      <trkpt lat="46.20531" lon="-0.81446">
        <ele>21</ele>
        <time>2015-10-12T09:46:03Z</time>
      </trkpt>
      <trkpt lat="46.2053" lon="-0.81442">
        <ele>21</ele>
        <time>2015-10-12T09:48:01Z</time>
      </trkpt>
      <trkpt lat="46.20529" lon="-0.81444">
        <ele>21</ele>
        <time>2015-10-12T09:50:39Z</time>
      </trkpt>
      <trkpt lat="46.20529" lon="-0.81441">
        <ele>21</ele>
        <time>2015-10-12T09:52:29Z</time>
      </trkpt>
      <trkpt lat="46.20531" lon="-0.81443">
        <ele>21</ele>
        <time>2015-10-12T09:53:11Z</time>
      </trkpt>
      <trkpt lat="46.20531" lon="-0.81444">
        <ele>21</ele>
        <time>2015-10-12T09:53:18Z</time>
      </trkpt>
    </trkseg>
  </trk>
</gpx>